<?xml version="1.0" encoding="UTF-8" standalone="no" ?>
<gpx xmlns="http://www.topografix.com/GPX/1/1" xmlns:xsi="http://www.w3.org/2001/XMLSchema-instance" xsi:schemaLocation="http://www.topografix.com/GPX/1/1 http://www.topografix.com/GPX/1/1/gpx.xsd" version="1.1" creator="VisuGPX - https://www.visugpx.com">
  <metadata>
    <name>CB : une marche le long des écluses du canal du nivernais</name>
    <desc><![CDATA[Jolie marche tranquille le long de 13 des 16 écluses formant \"les échelles\", le long du canal du nivernais près de la collancelle. A refaire... avec mon VTT bien sur !]]></desc>
  </metadata>
  <trk>
    <name><![CDATA[2012/10/13 LA COLLANCELLE MARCHE]]></name>
    <trkseg>
      <trkpt lat="47.17716" lon="3.66161">
        <ele>269</ele>
        <time>2012-10-13T13:57:05Z</time>
      </trkpt>
      <trkpt lat="47.17716" lon="3.66162">
        <ele>269</ele>
        <time>2012-10-13T13:57:06Z</time>
      </trkpt>
      <trkpt lat="47.17702" lon="3.66149">
        <ele>270</ele>
        <time>2012-10-13T13:57:27Z</time>
      </trkpt>
      <trkpt lat="47.177" lon="3.66149">
        <ele>270</ele>
        <time>2012-10-13T13:57:42Z</time>
      </trkpt>
      <trkpt lat="47.177" lon="3.6615">
        <ele>270</ele>
        <time>2012-10-13T13:57:58Z</time>
      </trkpt>
      <trkpt lat="47.17697" lon="3.66153">
        <ele>270</ele>
        <time>2012-10-13T13:58:20Z</time>
      </trkpt>
      <trkpt lat="47.17697" lon="3.66151">
        <ele>270</ele>
        <time>2012-10-13T13:58:53Z</time>
      </trkpt>
      <trkpt lat="47.17699" lon="3.66148">
        <ele>270</ele>
        <time>2012-10-13T13:59:22Z</time>
      </trkpt>
      <trkpt lat="47.17702" lon="3.66148">
        <ele>270</ele>
        <time>2012-10-13T13:59:42Z</time>
      </trkpt>
      <trkpt lat="47.17701" lon="3.66148">
        <ele>270</ele>
        <time>2012-10-13T13:59:57Z</time>
      </trkpt>
      <trkpt lat="47.17698" lon="3.66162">
        <ele>270</ele>
        <time>2012-10-13T14:00:05Z</time>
      </trkpt>
      <trkpt lat="47.17699" lon="3.66168">
        <ele>270</ele>
        <time>2012-10-13T14:00:08Z</time>
      </trkpt>
      <trkpt lat="47.17703" lon="3.66179">
        <ele>270</ele>
        <time>2012-10-13T14:00:15Z</time>
      </trkpt>
      <trkpt lat="47.17715" lon="3.6619">
        <ele>269</ele>
        <time>2012-10-13T14:00:28Z</time>
      </trkpt>
      <trkpt lat="47.17727" lon="3.66204">
        <ele>269</ele>
        <time>2012-10-13T14:00:41Z</time>
      </trkpt>
      <trkpt lat="47.17734" lon="3.66221">
        <ele>269</ele>
        <time>2012-10-13T14:00:54Z</time>
      </trkpt>
      <trkpt lat="47.17734" lon="3.66228">
        <ele>269</ele>
        <time>2012-10-13T14:00:57Z</time>
      </trkpt>
      <trkpt lat="47.17735" lon="3.66232">
        <ele>268</ele>
        <time>2012-10-13T14:00:59Z</time>
      </trkpt>
      <trkpt lat="47.17734" lon="3.66237">
        <ele>268</ele>
        <time>2012-10-13T14:01:02Z</time>
      </trkpt>
      <trkpt lat="47.17734" lon="3.66252">
        <ele>269</ele>
        <time>2012-10-13T14:01:12Z</time>
      </trkpt>
      <trkpt lat="47.17733" lon="3.66263">
        <ele>270</ele>
        <time>2012-10-13T14:01:18Z</time>
      </trkpt>
      <trkpt lat="47.17733" lon="3.6627">
        <ele>270</ele>
        <time>2012-10-13T14:01:22Z</time>
      </trkpt>
      <trkpt lat="47.1773" lon="3.66289">
        <ele>272</ele>
        <time>2012-10-13T14:01:33Z</time>
      </trkpt>
      <trkpt lat="47.17727" lon="3.6631">
        <ele>272</ele>
        <time>2012-10-13T14:01:49Z</time>
      </trkpt>
      <trkpt lat="47.17727" lon="3.6631">
        <ele>272</ele>
        <time>2012-10-13T14:01:51Z</time>
      </trkpt>
      <trkpt lat="47.17728" lon="3.66314">
        <ele>271</ele>
        <time>2012-10-13T14:01:54Z</time>
      </trkpt>
      <trkpt lat="47.17729" lon="3.66324">
        <ele>271</ele>
        <time>2012-10-13T14:02:02Z</time>
      </trkpt>
      <trkpt lat="47.17731" lon="3.66335">
        <ele>270</ele>
        <time>2012-10-13T14:02:08Z</time>
      </trkpt>
      <trkpt lat="47.17732" lon="3.66342">
        <ele>271</ele>
        <time>2012-10-13T14:02:12Z</time>
      </trkpt>
      <trkpt lat="47.17733" lon="3.66353">
        <ele>271</ele>
        <time>2012-10-13T14:02:20Z</time>
      </trkpt>
      <trkpt lat="47.17737" lon="3.66377">
        <ele>271</ele>
        <time>2012-10-13T14:02:35Z</time>
      </trkpt>
      <trkpt lat="47.17735" lon="3.66386">
        <ele>271</ele>
        <time>2012-10-13T14:02:48Z</time>
      </trkpt>
      <trkpt lat="47.17734" lon="3.6639">
        <ele>271</ele>
        <time>2012-10-13T14:02:51Z</time>
      </trkpt>
      <trkpt lat="47.17733" lon="3.66397">
        <ele>270</ele>
        <time>2012-10-13T14:02:55Z</time>
      </trkpt>
      <trkpt lat="47.17732" lon="3.66402">
        <ele>270</ele>
        <time>2012-10-13T14:02:59Z</time>
      </trkpt>
      <trkpt lat="47.17732" lon="3.66406">
        <ele>270</ele>
        <time>2012-10-13T14:03:02Z</time>
      </trkpt>
      <trkpt lat="47.17735" lon="3.66418">
        <ele>268</ele>
        <time>2012-10-13T14:03:15Z</time>
      </trkpt>
      <trkpt lat="47.17733" lon="3.6642">
        <ele>268</ele>
        <time>2012-10-13T14:03:39Z</time>
      </trkpt>
      <trkpt lat="47.17735" lon="3.6642">
        <ele>268</ele>
        <time>2012-10-13T14:03:41Z</time>
      </trkpt>
      <trkpt lat="47.1774" lon="3.66422">
        <ele>267</ele>
        <time>2012-10-13T14:03:46Z</time>
      </trkpt>
      <trkpt lat="47.17743" lon="3.66433">
        <ele>268</ele>
        <time>2012-10-13T14:03:56Z</time>
      </trkpt>
      <trkpt lat="47.17746" lon="3.66426">
        <ele>266</ele>
        <time>2012-10-13T14:04:10Z</time>
      </trkpt>
      <trkpt lat="47.17749" lon="3.66423">
        <ele>265</ele>
        <time>2012-10-13T14:04:22Z</time>
      </trkpt>
      <trkpt lat="47.17751" lon="3.66424">
        <ele>265</ele>
        <time>2012-10-13T14:04:27Z</time>
      </trkpt>
      <trkpt lat="47.17754" lon="3.66427">
        <ele>266</ele>
        <time>2012-10-13T14:04:31Z</time>
      </trkpt>
      <trkpt lat="47.17756" lon="3.66436">
        <ele>267</ele>
        <time>2012-10-13T14:04:36Z</time>
      </trkpt>
      <trkpt lat="47.17754" lon="3.66443">
        <ele>268</ele>
        <time>2012-10-13T14:04:40Z</time>
      </trkpt>
      <trkpt lat="47.17753" lon="3.66454">
        <ele>268</ele>
        <time>2012-10-13T14:04:48Z</time>
      </trkpt>
      <trkpt lat="47.17748" lon="3.6646">
        <ele>269</ele>
        <time>2012-10-13T14:04:54Z</time>
      </trkpt>
      <trkpt lat="47.17747" lon="3.66463">
        <ele>269</ele>
        <time>2012-10-13T14:04:56Z</time>
      </trkpt>
      <trkpt lat="47.17745" lon="3.66467">
        <ele>269</ele>
        <time>2012-10-13T14:05:00Z</time>
      </trkpt>
      <trkpt lat="47.17741" lon="3.6647">
        <ele>269</ele>
        <time>2012-10-13T14:05:12Z</time>
      </trkpt>
      <trkpt lat="47.17742" lon="3.66472">
        <ele>269</ele>
        <time>2012-10-13T14:05:21Z</time>
      </trkpt>
      <trkpt lat="47.17742" lon="3.66476">
        <ele>269</ele>
        <time>2012-10-13T14:05:24Z</time>
      </trkpt>
      <trkpt lat="47.17741" lon="3.66482">
        <ele>268</ele>
        <time>2012-10-13T14:05:28Z</time>
      </trkpt>
      <trkpt lat="47.17738" lon="3.6649">
        <ele>268</ele>
        <time>2012-10-13T14:05:36Z</time>
      </trkpt>
      <trkpt lat="47.17736" lon="3.66503">
        <ele>267</ele>
        <time>2012-10-13T14:05:43Z</time>
      </trkpt>
      <trkpt lat="47.17736" lon="3.66526">
        <ele>269</ele>
        <time>2012-10-13T14:05:55Z</time>
      </trkpt>
      <trkpt lat="47.17737" lon="3.66532">
        <ele>269</ele>
        <time>2012-10-13T14:05:59Z</time>
      </trkpt>
      <trkpt lat="47.1774" lon="3.66557">
        <ele>268</ele>
        <time>2012-10-13T14:06:13Z</time>
      </trkpt>
      <trkpt lat="47.17741" lon="3.66562">
        <ele>268</ele>
        <time>2012-10-13T14:06:16Z</time>
      </trkpt>
      <trkpt lat="47.17744" lon="3.66571">
        <ele>266</ele>
        <time>2012-10-13T14:06:24Z</time>
      </trkpt>
      <trkpt lat="47.17745" lon="3.66573">
        <ele>266</ele>
        <time>2012-10-13T14:06:40Z</time>
      </trkpt>
      <trkpt lat="47.17746" lon="3.66574">
        <ele>265</ele>
        <time>2012-10-13T14:06:45Z</time>
      </trkpt>
      <trkpt lat="47.17748" lon="3.66583">
        <ele>263</ele>
        <time>2012-10-13T14:06:51Z</time>
      </trkpt>
      <trkpt lat="47.17753" lon="3.66593">
        <ele>264</ele>
        <time>2012-10-13T14:06:58Z</time>
      </trkpt>
      <trkpt lat="47.1775" lon="3.66599">
        <ele>264</ele>
        <time>2012-10-13T14:07:03Z</time>
      </trkpt>
      <trkpt lat="47.17749" lon="3.66601">
        <ele>267</ele>
        <time>2012-10-13T14:07:15Z</time>
      </trkpt>
      <trkpt lat="47.17749" lon="3.66601">
        <ele>267</ele>
        <time>2012-10-13T14:07:16Z</time>
      </trkpt>
      <trkpt lat="47.17748" lon="3.66602">
        <ele>267</ele>
        <time>2012-10-13T14:07:18Z</time>
      </trkpt>
      <trkpt lat="47.17747" lon="3.66613">
        <ele>268</ele>
        <time>2012-10-13T14:07:30Z</time>
      </trkpt>
      <trkpt lat="47.17748" lon="3.66615">
        <ele>268</ele>
        <time>2012-10-13T14:07:32Z</time>
      </trkpt>
      <trkpt lat="47.17752" lon="3.66624">
        <ele>265</ele>
        <time>2012-10-13T14:07:45Z</time>
      </trkpt>
      <trkpt lat="47.17754" lon="3.66626">
        <ele>265</ele>
        <time>2012-10-13T14:07:48Z</time>
      </trkpt>
      <trkpt lat="47.17754" lon="3.66629">
        <ele>265</ele>
        <time>2012-10-13T14:07:55Z</time>
      </trkpt>
      <trkpt lat="47.17756" lon="3.66631">
        <ele>265</ele>
        <time>2012-10-13T14:08:08Z</time>
      </trkpt>
      <trkpt lat="47.17756" lon="3.66631">
        <ele>265</ele>
        <time>2012-10-13T14:08:19Z</time>
      </trkpt>
      <trkpt lat="47.17757" lon="3.66632">
        <ele>265</ele>
        <time>2012-10-13T14:08:21Z</time>
      </trkpt>
      <trkpt lat="47.1776" lon="3.66647">
        <ele>264</ele>
        <time>2012-10-13T14:08:32Z</time>
      </trkpt>
      <trkpt lat="47.1776" lon="3.66647">
        <ele>264</ele>
        <time>2012-10-13T14:08:35Z</time>
      </trkpt>
      <trkpt lat="47.17761" lon="3.66646">
        <ele>265</ele>
        <time>2012-10-13T14:08:50Z</time>
      </trkpt>
      <trkpt lat="47.17762" lon="3.66644">
        <ele>265</ele>
        <time>2012-10-13T14:09:01Z</time>
      </trkpt>
      <trkpt lat="47.17763" lon="3.66642">
        <ele>265</ele>
        <time>2012-10-13T14:09:14Z</time>
      </trkpt>
      <trkpt lat="47.17764" lon="3.66642">
        <ele>265</ele>
        <time>2012-10-13T14:09:16Z</time>
      </trkpt>
      <trkpt lat="47.17764" lon="3.66643">
        <ele>265</ele>
        <time>2012-10-13T14:09:26Z</time>
      </trkpt>
      <trkpt lat="47.17773" lon="3.66645">
        <ele>265</ele>
        <time>2012-10-13T14:09:38Z</time>
      </trkpt>
      <trkpt lat="47.17782" lon="3.66662">
        <ele>266</ele>
        <time>2012-10-13T14:09:54Z</time>
      </trkpt>
      <trkpt lat="47.17788" lon="3.66682">
        <ele>264</ele>
        <time>2012-10-13T14:10:09Z</time>
      </trkpt>
      <trkpt lat="47.17791" lon="3.6669">
        <ele>265</ele>
        <time>2012-10-13T14:10:21Z</time>
      </trkpt>
      <trkpt lat="47.17798" lon="3.66706">
        <ele>265</ele>
        <time>2012-10-13T14:10:36Z</time>
      </trkpt>
      <trkpt lat="47.178" lon="3.66715">
        <ele>264</ele>
        <time>2012-10-13T14:10:49Z</time>
      </trkpt>
      <trkpt lat="47.178" lon="3.66717">
        <ele>264</ele>
        <time>2012-10-13T14:11:07Z</time>
      </trkpt>
      <trkpt lat="47.178" lon="3.66718">
        <ele>264</ele>
        <time>2012-10-13T14:11:08Z</time>
      </trkpt>
      <trkpt lat="47.17807" lon="3.66734">
        <ele>264</ele>
        <time>2012-10-13T14:11:22Z</time>
      </trkpt>
      <trkpt lat="47.17812" lon="3.6674">
        <ele>263</ele>
        <time>2012-10-13T14:11:26Z</time>
      </trkpt>
      <trkpt lat="47.17813" lon="3.66742">
        <ele>263</ele>
        <time>2012-10-13T14:11:34Z</time>
      </trkpt>
      <trkpt lat="47.17814" lon="3.66745">
        <ele>263</ele>
        <time>2012-10-13T14:11:36Z</time>
      </trkpt>
      <trkpt lat="47.17819" lon="3.66765">
        <ele>262</ele>
        <time>2012-10-13T14:11:47Z</time>
      </trkpt>
      <trkpt lat="47.17817" lon="3.66772">
        <ele>262</ele>
        <time>2012-10-13T14:12:01Z</time>
      </trkpt>
      <trkpt lat="47.1782" lon="3.66775">
        <ele>262</ele>
        <time>2012-10-13T14:12:07Z</time>
      </trkpt>
      <trkpt lat="47.17819" lon="3.66774">
        <ele>262</ele>
        <time>2012-10-13T14:12:23Z</time>
      </trkpt>
      <trkpt lat="47.17819" lon="3.66775">
        <ele>262</ele>
        <time>2012-10-13T14:12:28Z</time>
      </trkpt>
      <trkpt lat="47.17821" lon="3.66778">
        <ele>262</ele>
        <time>2012-10-13T14:12:31Z</time>
      </trkpt>
      <trkpt lat="47.17822" lon="3.66781">
        <ele>262</ele>
        <time>2012-10-13T14:12:45Z</time>
      </trkpt>
      <trkpt lat="47.17828" lon="3.66791">
        <ele>262</ele>
        <time>2012-10-13T14:12:57Z</time>
      </trkpt>
      <trkpt lat="47.17834" lon="3.66813">
        <ele>260</ele>
        <time>2012-10-13T14:13:11Z</time>
      </trkpt>
      <trkpt lat="47.1784" lon="3.66832">
        <ele>258</ele>
        <time>2012-10-13T14:13:23Z</time>
      </trkpt>
      <trkpt lat="47.17843" lon="3.66837">
        <ele>257</ele>
        <time>2012-10-13T14:13:33Z</time>
      </trkpt>
      <trkpt lat="47.17849" lon="3.66849">
        <ele>258</ele>
        <time>2012-10-13T14:13:45Z</time>
      </trkpt>
      <trkpt lat="47.17854" lon="3.66863">
        <ele>259</ele>
        <time>2012-10-13T14:13:53Z</time>
      </trkpt>
      <trkpt lat="47.17856" lon="3.66872">
        <ele>259</ele>
        <time>2012-10-13T14:14:00Z</time>
      </trkpt>
      <trkpt lat="47.17864" lon="3.66889">
        <ele>259</ele>
        <time>2012-10-13T14:14:13Z</time>
      </trkpt>
      <trkpt lat="47.17866" lon="3.66898">
        <ele>259</ele>
        <time>2012-10-13T14:14:25Z</time>
      </trkpt>
      <trkpt lat="47.17868" lon="3.669">
        <ele>259</ele>
        <time>2012-10-13T14:14:29Z</time>
      </trkpt>
      <trkpt lat="47.17876" lon="3.66918">
        <ele>260</ele>
        <time>2012-10-13T14:14:43Z</time>
      </trkpt>
      <trkpt lat="47.17877" lon="3.66922">
        <ele>260</ele>
        <time>2012-10-13T14:14:46Z</time>
      </trkpt>
      <trkpt lat="47.17885" lon="3.66942">
        <ele>260</ele>
        <time>2012-10-13T14:15:00Z</time>
      </trkpt>
      <trkpt lat="47.17886" lon="3.66946">
        <ele>259</ele>
        <time>2012-10-13T14:15:04Z</time>
      </trkpt>
      <trkpt lat="47.17889" lon="3.66953">
        <ele>259</ele>
        <time>2012-10-13T14:15:09Z</time>
      </trkpt>
      <trkpt lat="47.17891" lon="3.66956">
        <ele>259</ele>
        <time>2012-10-13T14:15:11Z</time>
      </trkpt>
      <trkpt lat="47.17893" lon="3.66964">
        <ele>259</ele>
        <time>2012-10-13T14:15:21Z</time>
      </trkpt>
      <trkpt lat="47.17897" lon="3.66971">
        <ele>259</ele>
        <time>2012-10-13T14:15:29Z</time>
      </trkpt>
      <trkpt lat="47.17896" lon="3.66983">
        <ele>258</ele>
        <time>2012-10-13T14:15:36Z</time>
      </trkpt>
      <trkpt lat="47.17894" lon="3.66991">
        <ele>258</ele>
        <time>2012-10-13T14:15:40Z</time>
      </trkpt>
      <trkpt lat="47.17886" lon="3.66999">
        <ele>259</ele>
        <time>2012-10-13T14:15:52Z</time>
      </trkpt>
      <trkpt lat="47.17886" lon="3.67004">
        <ele>260</ele>
        <time>2012-10-13T14:16:04Z</time>
      </trkpt>
      <trkpt lat="47.17886" lon="3.67005">
        <ele>260</ele>
        <time>2012-10-13T14:16:20Z</time>
      </trkpt>
      <trkpt lat="47.17887" lon="3.67008">
        <ele>260</ele>
        <time>2012-10-13T14:16:25Z</time>
      </trkpt>
      <trkpt lat="47.17892" lon="3.67019">
        <ele>260</ele>
        <time>2012-10-13T14:16:34Z</time>
      </trkpt>
      <trkpt lat="47.17895" lon="3.67023">
        <ele>260</ele>
        <time>2012-10-13T14:16:38Z</time>
      </trkpt>
      <trkpt lat="47.17897" lon="3.67025">
        <ele>260</ele>
        <time>2012-10-13T14:16:40Z</time>
      </trkpt>
      <trkpt lat="47.179" lon="3.67038">
        <ele>260</ele>
        <time>2012-10-13T14:16:54Z</time>
      </trkpt>
      <trkpt lat="47.17899" lon="3.6704">
        <ele>260</ele>
        <time>2012-10-13T14:17:08Z</time>
      </trkpt>
      <trkpt lat="47.179" lon="3.67038">
        <ele>260</ele>
        <time>2012-10-13T14:17:20Z</time>
      </trkpt>
      <trkpt lat="47.17901" lon="3.67038">
        <ele>260</ele>
        <time>2012-10-13T14:17:32Z</time>
      </trkpt>
      <trkpt lat="47.17904" lon="3.67039">
        <ele>260</ele>
        <time>2012-10-13T14:17:47Z</time>
      </trkpt>
      <trkpt lat="47.17906" lon="3.67039">
        <ele>260</ele>
        <time>2012-10-13T14:18:11Z</time>
      </trkpt>
      <trkpt lat="47.17913" lon="3.67039">
        <ele>259</ele>
        <time>2012-10-13T14:18:26Z</time>
      </trkpt>
      <trkpt lat="47.17919" lon="3.67045">
        <ele>257</ele>
        <time>2012-10-13T14:18:38Z</time>
      </trkpt>
      <trkpt lat="47.17919" lon="3.67046">
        <ele>257</ele>
        <time>2012-10-13T14:18:39Z</time>
      </trkpt>
      <trkpt lat="47.17923" lon="3.67052">
        <ele>257</ele>
        <time>2012-10-13T14:18:47Z</time>
      </trkpt>
      <trkpt lat="47.17923" lon="3.67053">
        <ele>257</ele>
        <time>2012-10-13T14:18:48Z</time>
      </trkpt>
      <trkpt lat="47.17924" lon="3.67054">
        <ele>257</ele>
        <time>2012-10-13T14:18:49Z</time>
      </trkpt>
      <trkpt lat="47.17925" lon="3.67054">
        <ele>257</ele>
        <time>2012-10-13T14:18:53Z</time>
      </trkpt>
      <trkpt lat="47.17925" lon="3.67054">
        <ele>257</ele>
        <time>2012-10-13T14:18:54Z</time>
      </trkpt>
      <trkpt lat="47.17925" lon="3.67053">
        <ele>257</ele>
        <time>2012-10-13T14:18:55Z</time>
      </trkpt>
      <trkpt lat="47.17925" lon="3.67053">
        <ele>257</ele>
        <time>2012-10-13T14:18:56Z</time>
      </trkpt>
      <trkpt lat="47.17925" lon="3.67053">
        <ele>257</ele>
        <time>2012-10-13T14:18:57Z</time>
      </trkpt>
      <trkpt lat="47.17926" lon="3.67052">
        <ele>257</ele>
        <time>2012-10-13T14:18:59Z</time>
      </trkpt>
      <trkpt lat="47.17926" lon="3.67052">
        <ele>257</ele>
        <time>2012-10-13T14:19:00Z</time>
      </trkpt>
      <trkpt lat="47.17926" lon="3.67052">
        <ele>257</ele>
        <time>2012-10-13T14:19:01Z</time>
      </trkpt>
      <trkpt lat="47.17929" lon="3.67055">
        <ele>257</ele>
        <time>2012-10-13T14:19:05Z</time>
      </trkpt>
      <trkpt lat="47.17937" lon="3.67064">
        <ele>257</ele>
        <time>2012-10-13T14:19:17Z</time>
      </trkpt>
      <trkpt lat="47.17942" lon="3.6707">
        <ele>257</ele>
        <time>2012-10-13T14:19:24Z</time>
      </trkpt>
      <trkpt lat="47.1795" lon="3.6708">
        <ele>257</ele>
        <time>2012-10-13T14:19:38Z</time>
      </trkpt>
      <trkpt lat="47.1795" lon="3.6708">
        <ele>257</ele>
        <time>2012-10-13T14:19:54Z</time>
      </trkpt>
      <trkpt lat="47.17954" lon="3.67084">
        <ele>255</ele>
        <time>2012-10-13T14:19:58Z</time>
      </trkpt>
      <trkpt lat="47.17956" lon="3.67086">
        <ele>255</ele>
        <time>2012-10-13T14:20:00Z</time>
      </trkpt>
      <trkpt lat="47.17961" lon="3.67093">
        <ele>255</ele>
        <time>2012-10-13T14:20:07Z</time>
      </trkpt>
      <trkpt lat="47.17973" lon="3.67104">
        <ele>255</ele>
        <time>2012-10-13T14:20:21Z</time>
      </trkpt>
      <trkpt lat="47.1798" lon="3.67111">
        <ele>255</ele>
        <time>2012-10-13T14:20:32Z</time>
      </trkpt>
      <trkpt lat="47.17992" lon="3.67123">
        <ele>255</ele>
        <time>2012-10-13T14:20:45Z</time>
      </trkpt>
      <trkpt lat="47.18" lon="3.67131">
        <ele>254</ele>
        <time>2012-10-13T14:20:58Z</time>
      </trkpt>
      <trkpt lat="47.18001" lon="3.67129">
        <ele>254</ele>
        <time>2012-10-13T14:21:14Z</time>
      </trkpt>
      <trkpt lat="47.18" lon="3.67129">
        <ele>254</ele>
        <time>2012-10-13T14:21:31Z</time>
      </trkpt>
      <trkpt lat="47.18001" lon="3.67128">
        <ele>254</ele>
        <time>2012-10-13T14:21:55Z</time>
      </trkpt>
      <trkpt lat="47.18001" lon="3.67119">
        <ele>255</ele>
        <time>2012-10-13T14:22:09Z</time>
      </trkpt>
      <trkpt lat="47.18006" lon="3.67106">
        <ele>256</ele>
        <time>2012-10-13T14:22:33Z</time>
      </trkpt>
      <trkpt lat="47.18004" lon="3.67107">
        <ele>256</ele>
        <time>2012-10-13T14:22:52Z</time>
      </trkpt>
      <trkpt lat="47.17996" lon="3.67127">
        <ele>254</ele>
        <time>2012-10-13T14:23:07Z</time>
      </trkpt>
      <trkpt lat="47.17999" lon="3.67134">
        <ele>254</ele>
        <time>2012-10-13T14:23:18Z</time>
      </trkpt>
      <trkpt lat="47.18009" lon="3.67139">
        <ele>254</ele>
        <time>2012-10-13T14:23:31Z</time>
      </trkpt>
      <trkpt lat="47.18013" lon="3.67139">
        <ele>254</ele>
        <time>2012-10-13T14:23:34Z</time>
      </trkpt>
      <trkpt lat="47.18018" lon="3.67143">
        <ele>254</ele>
        <time>2012-10-13T14:23:40Z</time>
      </trkpt>
      <trkpt lat="47.18014" lon="3.67155">
        <ele>252</ele>
        <time>2012-10-13T14:23:51Z</time>
      </trkpt>
      <trkpt lat="47.18016" lon="3.67156">
        <ele>253</ele>
        <time>2012-10-13T14:24:08Z</time>
      </trkpt>
      <trkpt lat="47.18017" lon="3.67152">
        <ele>253</ele>
        <time>2012-10-13T14:24:28Z</time>
      </trkpt>
      <trkpt lat="47.18022" lon="3.67144">
        <ele>254</ele>
        <time>2012-10-13T14:24:42Z</time>
      </trkpt>
      <trkpt lat="47.18027" lon="3.67141">
        <ele>254</ele>
        <time>2012-10-13T14:24:47Z</time>
      </trkpt>
      <trkpt lat="47.18041" lon="3.67144">
        <ele>255</ele>
        <time>2012-10-13T14:25:01Z</time>
      </trkpt>
      <trkpt lat="47.18043" lon="3.67145">
        <ele>255</ele>
        <time>2012-10-13T14:25:03Z</time>
      </trkpt>
      <trkpt lat="47.18056" lon="3.67146">
        <ele>255</ele>
        <time>2012-10-13T14:25:17Z</time>
      </trkpt>
      <trkpt lat="47.1806" lon="3.67147">
        <ele>255</ele>
        <time>2012-10-13T14:25:21Z</time>
      </trkpt>
      <trkpt lat="47.18073" lon="3.67151">
        <ele>254</ele>
        <time>2012-10-13T14:25:35Z</time>
      </trkpt>
      <trkpt lat="47.18085" lon="3.67155">
        <ele>255</ele>
        <time>2012-10-13T14:25:48Z</time>
      </trkpt>
      <trkpt lat="47.18091" lon="3.67155">
        <ele>256</ele>
        <time>2012-10-13T14:25:55Z</time>
      </trkpt>
      <trkpt lat="47.18104" lon="3.67158">
        <ele>257</ele>
        <time>2012-10-13T14:26:09Z</time>
      </trkpt>
      <trkpt lat="47.18112" lon="3.67162">
        <ele>258</ele>
        <time>2012-10-13T14:26:21Z</time>
      </trkpt>
      <trkpt lat="47.18113" lon="3.67164">
        <ele>258</ele>
        <time>2012-10-13T14:26:31Z</time>
      </trkpt>
      <trkpt lat="47.18114" lon="3.67165">
        <ele>258</ele>
        <time>2012-10-13T14:26:54Z</time>
      </trkpt>
      <trkpt lat="47.18114" lon="3.67167">
        <ele>253</ele>
        <time>2012-10-13T14:27:16Z</time>
      </trkpt>
      <trkpt lat="47.18124" lon="3.67168">
        <ele>253</ele>
        <time>2012-10-13T14:27:29Z</time>
      </trkpt>
      <trkpt lat="47.18125" lon="3.67169">
        <ele>253</ele>
        <time>2012-10-13T14:27:30Z</time>
      </trkpt>
      <trkpt lat="47.18141" lon="3.67174">
        <ele>253</ele>
        <time>2012-10-13T14:27:46Z</time>
      </trkpt>
      <trkpt lat="47.18153" lon="3.6718">
        <ele>254</ele>
        <time>2012-10-13T14:27:57Z</time>
      </trkpt>
      <trkpt lat="47.18153" lon="3.67182">
        <ele>254</ele>
        <time>2012-10-13T14:27:58Z</time>
      </trkpt>
      <trkpt lat="47.18157" lon="3.67181">
        <ele>254</ele>
        <time>2012-10-13T14:28:03Z</time>
      </trkpt>
      <trkpt lat="47.18166" lon="3.67181">
        <ele>254</ele>
        <time>2012-10-13T14:28:15Z</time>
      </trkpt>
      <trkpt lat="47.18167" lon="3.67192">
        <ele>253</ele>
        <time>2012-10-13T14:28:30Z</time>
      </trkpt>
      <trkpt lat="47.18168" lon="3.67198">
        <ele>254</ele>
        <time>2012-10-13T14:28:47Z</time>
      </trkpt>
      <trkpt lat="47.18169" lon="3.67198">
        <ele>254</ele>
        <time>2012-10-13T14:28:49Z</time>
      </trkpt>
      <trkpt lat="47.18174" lon="3.67194">
        <ele>254</ele>
        <time>2012-10-13T14:28:56Z</time>
      </trkpt>
      <trkpt lat="47.18188" lon="3.67191">
        <ele>254</ele>
        <time>2012-10-13T14:29:09Z</time>
      </trkpt>
      <trkpt lat="47.18203" lon="3.67191">
        <ele>254</ele>
        <time>2012-10-13T14:29:23Z</time>
      </trkpt>
      <trkpt lat="47.18205" lon="3.67191">
        <ele>254</ele>
        <time>2012-10-13T14:29:25Z</time>
      </trkpt>
      <trkpt lat="47.18217" lon="3.67191">
        <ele>254</ele>
        <time>2012-10-13T14:29:38Z</time>
      </trkpt>
      <trkpt lat="47.18226" lon="3.67188">
        <ele>254</ele>
        <time>2012-10-13T14:29:47Z</time>
      </trkpt>
      <trkpt lat="47.18239" lon="3.67188">
        <ele>254</ele>
        <time>2012-10-13T14:30:01Z</time>
      </trkpt>
      <trkpt lat="47.18253" lon="3.67187">
        <ele>254</ele>
        <time>2012-10-13T14:30:14Z</time>
      </trkpt>
      <trkpt lat="47.1827" lon="3.67186">
        <ele>254</ele>
        <time>2012-10-13T14:30:30Z</time>
      </trkpt>
      <trkpt lat="47.18274" lon="3.67184">
        <ele>254</ele>
        <time>2012-10-13T14:30:35Z</time>
      </trkpt>
      <trkpt lat="47.18286" lon="3.67185">
        <ele>254</ele>
        <time>2012-10-13T14:30:48Z</time>
      </trkpt>
      <trkpt lat="47.18288" lon="3.67191">
        <ele>254</ele>
        <time>2012-10-13T14:31:07Z</time>
      </trkpt>
      <trkpt lat="47.1829" lon="3.67195">
        <ele>254</ele>
        <time>2012-10-13T14:31:28Z</time>
      </trkpt>
      <trkpt lat="47.18298" lon="3.67196">
        <ele>254</ele>
        <time>2012-10-13T14:31:42Z</time>
      </trkpt>
      <trkpt lat="47.18308" lon="3.67195">
        <ele>254</ele>
        <time>2012-10-13T14:31:54Z</time>
      </trkpt>
      <trkpt lat="47.18321" lon="3.67196">
        <ele>254</ele>
        <time>2012-10-13T14:32:07Z</time>
      </trkpt>
      <trkpt lat="47.18326" lon="3.67198">
        <ele>254</ele>
        <time>2012-10-13T14:32:12Z</time>
      </trkpt>
      <trkpt lat="47.18342" lon="3.67204">
        <ele>256</ele>
        <time>2012-10-13T14:32:27Z</time>
      </trkpt>
      <trkpt lat="47.18343" lon="3.67205">
        <ele>256</ele>
        <time>2012-10-13T14:32:28Z</time>
      </trkpt>
      <trkpt lat="47.18344" lon="3.67216">
        <ele>255</ele>
        <time>2012-10-13T14:32:41Z</time>
      </trkpt>
      <trkpt lat="47.18345" lon="3.67217">
        <ele>255</ele>
        <time>2012-10-13T14:32:53Z</time>
      </trkpt>
      <trkpt lat="47.18345" lon="3.67216">
        <ele>255</ele>
        <time>2012-10-13T14:33:06Z</time>
      </trkpt>
      <trkpt lat="47.18347" lon="3.67213">
        <ele>255</ele>
        <time>2012-10-13T14:33:24Z</time>
      </trkpt>
      <trkpt lat="47.18348" lon="3.67214">
        <ele>255</ele>
        <time>2012-10-13T14:33:26Z</time>
      </trkpt>
      <trkpt lat="47.18346" lon="3.6722">
        <ele>254</ele>
        <time>2012-10-13T14:33:39Z</time>
      </trkpt>
      <trkpt lat="47.1835" lon="3.67222">
        <ele>254</ele>
        <time>2012-10-13T14:33:50Z</time>
      </trkpt>
      <trkpt lat="47.18358" lon="3.67223">
        <ele>255</ele>
        <time>2012-10-13T14:33:59Z</time>
      </trkpt>
      <trkpt lat="47.1837" lon="3.67231">
        <ele>255</ele>
        <time>2012-10-13T14:34:13Z</time>
      </trkpt>
      <trkpt lat="47.18376" lon="3.67234">
        <ele>255</ele>
        <time>2012-10-13T14:34:27Z</time>
      </trkpt>
      <trkpt lat="47.18377" lon="3.67236">
        <ele>255</ele>
        <time>2012-10-13T14:34:51Z</time>
      </trkpt>
      <trkpt lat="47.18379" lon="3.67237">
        <ele>255</ele>
        <time>2012-10-13T14:35:02Z</time>
      </trkpt>
      <trkpt lat="47.18381" lon="3.67237">
        <ele>255</ele>
        <time>2012-10-13T14:35:04Z</time>
      </trkpt>
      <trkpt lat="47.18384" lon="3.67238">
        <ele>255</ele>
        <time>2012-10-13T14:35:12Z</time>
      </trkpt>
      <trkpt lat="47.18384" lon="3.67237">
        <ele>255</ele>
        <time>2012-10-13T14:35:21Z</time>
      </trkpt>
      <trkpt lat="47.18384" lon="3.67237">
        <ele>255</ele>
        <time>2012-10-13T14:35:23Z</time>
      </trkpt>
      <trkpt lat="47.18384" lon="3.67237">
        <ele>255</ele>
        <time>2012-10-13T14:35:24Z</time>
      </trkpt>
      <trkpt lat="47.18384" lon="3.67237">
        <ele>255</ele>
        <time>2012-10-13T14:35:25Z</time>
      </trkpt>
      <trkpt lat="47.18384" lon="3.67237">
        <ele>255</ele>
        <time>2012-10-13T14:35:32Z</time>
      </trkpt>
      <trkpt lat="47.18384" lon="3.67238">
        <ele>255</ele>
        <time>2012-10-13T14:35:46Z</time>
      </trkpt>
      <trkpt lat="47.18384" lon="3.67238">
        <ele>255</ele>
        <time>2012-10-13T14:35:47Z</time>
      </trkpt>
      <trkpt lat="47.18384" lon="3.67238">
        <ele>255</ele>
        <time>2012-10-13T14:35:48Z</time>
      </trkpt>
      <trkpt lat="47.18384" lon="3.67238">
        <ele>255</ele>
        <time>2012-10-13T14:35:49Z</time>
      </trkpt>
      <trkpt lat="47.18384" lon="3.67238">
        <ele>255</ele>
        <time>2012-10-13T14:35:50Z</time>
      </trkpt>
      <trkpt lat="47.18387" lon="3.67239">
        <ele>255</ele>
        <time>2012-10-13T14:36:00Z</time>
      </trkpt>
      <trkpt lat="47.18392" lon="3.67243">
        <ele>255</ele>
        <time>2012-10-13T14:36:06Z</time>
      </trkpt>
      <trkpt lat="47.18396" lon="3.67245">
        <ele>254</ele>
        <time>2012-10-13T14:36:10Z</time>
      </trkpt>
      <trkpt lat="47.18409" lon="3.67257">
        <ele>251</ele>
        <time>2012-10-13T14:36:24Z</time>
      </trkpt>
      <trkpt lat="47.1841" lon="3.67259">
        <ele>251</ele>
        <time>2012-10-13T14:36:26Z</time>
      </trkpt>
      <trkpt lat="47.18412" lon="3.67263">
        <ele>251</ele>
        <time>2012-10-13T14:36:29Z</time>
      </trkpt>
      <trkpt lat="47.18415" lon="3.67265">
        <ele>251</ele>
        <time>2012-10-13T14:36:33Z</time>
      </trkpt>
      <trkpt lat="47.18417" lon="3.67266">
        <ele>251</ele>
        <time>2012-10-13T14:36:35Z</time>
      </trkpt>
      <trkpt lat="47.18422" lon="3.67272">
        <ele>251</ele>
        <time>2012-10-13T14:36:41Z</time>
      </trkpt>
      <trkpt lat="47.18431" lon="3.67288">
        <ele>250</ele>
        <time>2012-10-13T14:36:55Z</time>
      </trkpt>
      <trkpt lat="47.18441" lon="3.67302">
        <ele>249</ele>
        <time>2012-10-13T14:37:09Z</time>
      </trkpt>
      <trkpt lat="47.18449" lon="3.67315">
        <ele>249</ele>
        <time>2012-10-13T14:37:21Z</time>
      </trkpt>
      <trkpt lat="47.18457" lon="3.67324">
        <ele>249</ele>
        <time>2012-10-13T14:37:32Z</time>
      </trkpt>
      <trkpt lat="47.18464" lon="3.67333">
        <ele>248</ele>
        <time>2012-10-13T14:37:44Z</time>
      </trkpt>
      <trkpt lat="47.18467" lon="3.6734">
        <ele>246</ele>
        <time>2012-10-13T14:37:49Z</time>
      </trkpt>
      <trkpt lat="47.18473" lon="3.6735">
        <ele>246</ele>
        <time>2012-10-13T14:38:02Z</time>
      </trkpt>
      <trkpt lat="47.18473" lon="3.6735">
        <ele>246</ele>
        <time>2012-10-13T14:38:20Z</time>
      </trkpt>
      <trkpt lat="47.1848" lon="3.67364">
        <ele>246</ele>
        <time>2012-10-13T14:38:31Z</time>
      </trkpt>
      <trkpt lat="47.18482" lon="3.67375">
        <ele>246</ele>
        <time>2012-10-13T14:38:39Z</time>
      </trkpt>
      <trkpt lat="47.18481" lon="3.6738">
        <ele>246</ele>
        <time>2012-10-13T14:38:50Z</time>
      </trkpt>
      <trkpt lat="47.18485" lon="3.67383">
        <ele>246</ele>
        <time>2012-10-13T14:38:55Z</time>
      </trkpt>
      <trkpt lat="47.18489" lon="3.67387">
        <ele>246</ele>
        <time>2012-10-13T14:39:01Z</time>
      </trkpt>
      <trkpt lat="47.18492" lon="3.67389">
        <ele>246</ele>
        <time>2012-10-13T14:39:03Z</time>
      </trkpt>
      <trkpt lat="47.18501" lon="3.67403">
        <ele>246</ele>
        <time>2012-10-13T14:39:18Z</time>
      </trkpt>
      <trkpt lat="47.18508" lon="3.67413">
        <ele>246</ele>
        <time>2012-10-13T14:39:31Z</time>
      </trkpt>
      <trkpt lat="47.18509" lon="3.67419">
        <ele>246</ele>
        <time>2012-10-13T14:39:39Z</time>
      </trkpt>
      <trkpt lat="47.18513" lon="3.67433">
        <ele>248</ele>
        <time>2012-10-13T14:39:51Z</time>
      </trkpt>
      <trkpt lat="47.18514" lon="3.67435">
        <ele>249</ele>
        <time>2012-10-13T14:39:53Z</time>
      </trkpt>
      <trkpt lat="47.18513" lon="3.67442">
        <ele>249</ele>
        <time>2012-10-13T14:40:07Z</time>
      </trkpt>
      <trkpt lat="47.1851" lon="3.67443">
        <ele>249</ele>
        <time>2012-10-13T14:40:33Z</time>
      </trkpt>
      <trkpt lat="47.18512" lon="3.6745">
        <ele>250</ele>
        <time>2012-10-13T14:40:56Z</time>
      </trkpt>
      <trkpt lat="47.18513" lon="3.67458">
        <ele>250</ele>
        <time>2012-10-13T14:41:04Z</time>
      </trkpt>
      <trkpt lat="47.18517" lon="3.67466">
        <ele>250</ele>
        <time>2012-10-13T14:41:11Z</time>
      </trkpt>
      <trkpt lat="47.18519" lon="3.67471">
        <ele>251</ele>
        <time>2012-10-13T14:41:15Z</time>
      </trkpt>
      <trkpt lat="47.18523" lon="3.67477">
        <ele>251</ele>
        <time>2012-10-13T14:41:30Z</time>
      </trkpt>
      <trkpt lat="47.18524" lon="3.67479">
        <ele>251</ele>
        <time>2012-10-13T14:41:54Z</time>
      </trkpt>
      <trkpt lat="47.18523" lon="3.67479">
        <ele>251</ele>
        <time>2012-10-13T14:41:56Z</time>
      </trkpt>
      <trkpt lat="47.18521" lon="3.67486">
        <ele>250</ele>
        <time>2012-10-13T14:42:01Z</time>
      </trkpt>
      <trkpt lat="47.18521" lon="3.67494">
        <ele>250</ele>
        <time>2012-10-13T14:42:07Z</time>
      </trkpt>
      <trkpt lat="47.18519" lon="3.67501">
        <ele>251</ele>
        <time>2012-10-13T14:42:13Z</time>
      </trkpt>
      <trkpt lat="47.1852" lon="3.67517">
        <ele>252</ele>
        <time>2012-10-13T14:42:25Z</time>
      </trkpt>
      <trkpt lat="47.18519" lon="3.67521">
        <ele>252</ele>
        <time>2012-10-13T14:42:28Z</time>
      </trkpt>
      <trkpt lat="47.18518" lon="3.67525">
        <ele>252</ele>
        <time>2012-10-13T14:42:31Z</time>
      </trkpt>
      <trkpt lat="47.18518" lon="3.67537">
        <ele>253</ele>
        <time>2012-10-13T14:42:39Z</time>
      </trkpt>
      <trkpt lat="47.18516" lon="3.6755">
        <ele>253</ele>
        <time>2012-10-13T14:42:48Z</time>
      </trkpt>
      <trkpt lat="47.18515" lon="3.67557">
        <ele>253</ele>
        <time>2012-10-13T14:42:53Z</time>
      </trkpt>
      <trkpt lat="47.18515" lon="3.67569">
        <ele>252</ele>
        <time>2012-10-13T14:43:05Z</time>
      </trkpt>
      <trkpt lat="47.18514" lon="3.67583">
        <ele>251</ele>
        <time>2012-10-13T14:43:16Z</time>
      </trkpt>
      <trkpt lat="47.18514" lon="3.67587">
        <ele>251</ele>
        <time>2012-10-13T14:43:19Z</time>
      </trkpt>
      <trkpt lat="47.18514" lon="3.67596">
        <ele>252</ele>
        <time>2012-10-13T14:43:25Z</time>
      </trkpt>
      <trkpt lat="47.18511" lon="3.67613">
        <ele>253</ele>
        <time>2012-10-13T14:43:38Z</time>
      </trkpt>
      <trkpt lat="47.18511" lon="3.67613">
        <ele>253</ele>
        <time>2012-10-13T14:43:40Z</time>
      </trkpt>
      <trkpt lat="47.18511" lon="3.67615">
        <ele>253</ele>
        <time>2012-10-13T14:43:42Z</time>
      </trkpt>
      <trkpt lat="47.18504" lon="3.67634">
        <ele>253</ele>
        <time>2012-10-13T14:43:56Z</time>
      </trkpt>
      <trkpt lat="47.185" lon="3.67642">
        <ele>251</ele>
        <time>2012-10-13T14:44:08Z</time>
      </trkpt>
      <trkpt lat="47.18501" lon="3.6765">
        <ele>251</ele>
        <time>2012-10-13T14:44:15Z</time>
      </trkpt>
      <trkpt lat="47.18502" lon="3.67661">
        <ele>248</ele>
        <time>2012-10-13T14:44:24Z</time>
      </trkpt>
      <trkpt lat="47.18501" lon="3.67665">
        <ele>247</ele>
        <time>2012-10-13T14:44:27Z</time>
      </trkpt>
      <trkpt lat="47.18494" lon="3.67668">
        <ele>248</ele>
        <time>2012-10-13T14:44:39Z</time>
      </trkpt>
      <trkpt lat="47.18493" lon="3.6767">
        <ele>248</ele>
        <time>2012-10-13T14:45:10Z</time>
      </trkpt>
      <trkpt lat="47.18493" lon="3.67668">
        <ele>248</ele>
        <time>2012-10-13T14:45:33Z</time>
      </trkpt>
      <trkpt lat="47.18493" lon="3.67668">
        <ele>248</ele>
        <time>2012-10-13T14:45:35Z</time>
      </trkpt>
      <trkpt lat="47.18494" lon="3.6767">
        <ele>248</ele>
        <time>2012-10-13T14:45:37Z</time>
      </trkpt>
      <trkpt lat="47.18496" lon="3.67679">
        <ele>249</ele>
        <time>2012-10-13T14:45:46Z</time>
      </trkpt>
      <trkpt lat="47.18498" lon="3.67693">
        <ele>251</ele>
        <time>2012-10-13T14:46:01Z</time>
      </trkpt>
      <trkpt lat="47.18496" lon="3.67693">
        <ele>251</ele>
        <time>2012-10-13T14:46:30Z</time>
      </trkpt>
      <trkpt lat="47.18497" lon="3.67697">
        <ele>251</ele>
        <time>2012-10-13T14:46:45Z</time>
      </trkpt>
      <trkpt lat="47.18496" lon="3.67715">
        <ele>251</ele>
        <time>2012-10-13T14:46:57Z</time>
      </trkpt>
      <trkpt lat="47.18493" lon="3.6774">
        <ele>249</ele>
        <time>2012-10-13T14:47:14Z</time>
      </trkpt>
      <trkpt lat="47.18492" lon="3.67753">
        <ele>247</ele>
        <time>2012-10-13T14:47:25Z</time>
      </trkpt>
      <trkpt lat="47.18491" lon="3.67765">
        <ele>249</ele>
        <time>2012-10-13T14:47:38Z</time>
      </trkpt>
      <trkpt lat="47.18488" lon="3.67781">
        <ele>250</ele>
        <time>2012-10-13T14:47:52Z</time>
      </trkpt>
      <trkpt lat="47.18486" lon="3.67795">
        <ele>250</ele>
        <time>2012-10-13T14:48:06Z</time>
      </trkpt>
      <trkpt lat="47.18486" lon="3.67815">
        <ele>249</ele>
        <time>2012-10-13T14:48:22Z</time>
      </trkpt>
      <trkpt lat="47.18483" lon="3.67826">
        <ele>248</ele>
        <time>2012-10-13T14:48:36Z</time>
      </trkpt>
      <trkpt lat="47.18483" lon="3.67828">
        <ele>248</ele>
        <time>2012-10-13T14:48:54Z</time>
      </trkpt>
      <trkpt lat="47.18482" lon="3.67831">
        <ele>248</ele>
        <time>2012-10-13T14:48:57Z</time>
      </trkpt>
      <trkpt lat="47.18482" lon="3.67832">
        <ele>248</ele>
        <time>2012-10-13T14:48:58Z</time>
      </trkpt>
      <trkpt lat="47.18481" lon="3.67842">
        <ele>247</ele>
        <time>2012-10-13T14:49:07Z</time>
      </trkpt>
      <trkpt lat="47.18478" lon="3.67858">
        <ele>248</ele>
        <time>2012-10-13T14:49:21Z</time>
      </trkpt>
      <trkpt lat="47.18478" lon="3.67868">
        <ele>248</ele>
        <time>2012-10-13T14:49:32Z</time>
      </trkpt>
      <trkpt lat="47.18477" lon="3.67872">
        <ele>248</ele>
        <time>2012-10-13T14:49:37Z</time>
      </trkpt>
      <trkpt lat="47.18476" lon="3.67881">
        <ele>248</ele>
        <time>2012-10-13T14:49:43Z</time>
      </trkpt>
      <trkpt lat="47.18476" lon="3.67885">
        <ele>248</ele>
        <time>2012-10-13T14:49:49Z</time>
      </trkpt>
      <trkpt lat="47.18476" lon="3.67889">
        <ele>248</ele>
        <time>2012-10-13T14:49:52Z</time>
      </trkpt>
      <trkpt lat="47.18474" lon="3.67897">
        <ele>248</ele>
        <time>2012-10-13T14:49:56Z</time>
      </trkpt>
      <trkpt lat="47.18476" lon="3.67899">
        <ele>248</ele>
        <time>2012-10-13T14:50:05Z</time>
      </trkpt>
      <trkpt lat="47.18478" lon="3.67913">
        <ele>247</ele>
        <time>2012-10-13T14:50:12Z</time>
      </trkpt>
      <trkpt lat="47.18479" lon="3.6792">
        <ele>246</ele>
        <time>2012-10-13T14:50:17Z</time>
      </trkpt>
      <trkpt lat="47.18481" lon="3.67929">
        <ele>245</ele>
        <time>2012-10-13T14:50:24Z</time>
      </trkpt>
      <trkpt lat="47.18484" lon="3.67934">
        <ele>245</ele>
        <time>2012-10-13T14:50:28Z</time>
      </trkpt>
      <trkpt lat="47.18484" lon="3.67939">
        <ele>245</ele>
        <time>2012-10-13T14:50:31Z</time>
      </trkpt>
      <trkpt lat="47.18488" lon="3.67944">
        <ele>245</ele>
        <time>2012-10-13T14:50:35Z</time>
      </trkpt>
      <trkpt lat="47.18489" lon="3.67949">
        <ele>245</ele>
        <time>2012-10-13T14:50:38Z</time>
      </trkpt>
      <trkpt lat="47.18494" lon="3.67961">
        <ele>244</ele>
        <time>2012-10-13T14:50:48Z</time>
      </trkpt>
      <trkpt lat="47.18502" lon="3.67977">
        <ele>245</ele>
        <time>2012-10-13T14:51:02Z</time>
      </trkpt>
      <trkpt lat="47.18504" lon="3.67979">
        <ele>245</ele>
        <time>2012-10-13T14:51:04Z</time>
      </trkpt>
      <trkpt lat="47.18507" lon="3.67985">
        <ele>244</ele>
        <time>2012-10-13T14:51:11Z</time>
      </trkpt>
      <trkpt lat="47.18511" lon="3.67993">
        <ele>243</ele>
        <time>2012-10-13T14:51:24Z</time>
      </trkpt>
      <trkpt lat="47.18516" lon="3.67995">
        <ele>244</ele>
        <time>2012-10-13T14:51:28Z</time>
      </trkpt>
      <trkpt lat="47.1852" lon="3.68003">
        <ele>243</ele>
        <time>2012-10-13T14:51:34Z</time>
      </trkpt>
      <trkpt lat="47.18521" lon="3.68011">
        <ele>243</ele>
        <time>2012-10-13T14:51:47Z</time>
      </trkpt>
      <trkpt lat="47.18521" lon="3.68011">
        <ele>243</ele>
        <time>2012-10-13T14:52:04Z</time>
      </trkpt>
      <trkpt lat="47.18519" lon="3.68012">
        <ele>243</ele>
        <time>2012-10-13T14:52:30Z</time>
      </trkpt>
      <trkpt lat="47.18521" lon="3.68014">
        <ele>243</ele>
        <time>2012-10-13T14:52:46Z</time>
      </trkpt>
      <trkpt lat="47.18524" lon="3.68017">
        <ele>244</ele>
        <time>2012-10-13T14:52:56Z</time>
      </trkpt>
      <trkpt lat="47.18527" lon="3.6802">
        <ele>245</ele>
        <time>2012-10-13T14:53:07Z</time>
      </trkpt>
      <trkpt lat="47.18528" lon="3.6802">
        <ele>245</ele>
        <time>2012-10-13T14:53:31Z</time>
      </trkpt>
      <trkpt lat="47.18529" lon="3.68024">
        <ele>245</ele>
        <time>2012-10-13T14:53:41Z</time>
      </trkpt>
      <trkpt lat="47.18534" lon="3.6803">
        <ele>246</ele>
        <time>2012-10-13T14:53:51Z</time>
      </trkpt>
      <trkpt lat="47.18535" lon="3.68033">
        <ele>246</ele>
        <time>2012-10-13T14:54:04Z</time>
      </trkpt>
      <trkpt lat="47.1854" lon="3.6804">
        <ele>246</ele>
        <time>2012-10-13T14:54:18Z</time>
      </trkpt>
      <trkpt lat="47.18544" lon="3.68044">
        <ele>246</ele>
        <time>2012-10-13T14:54:37Z</time>
      </trkpt>
      <trkpt lat="47.18551" lon="3.68056">
        <ele>247</ele>
        <time>2012-10-13T14:54:49Z</time>
      </trkpt>
      <trkpt lat="47.18557" lon="3.68063">
        <ele>247</ele>
        <time>2012-10-13T14:55:00Z</time>
      </trkpt>
      <trkpt lat="47.18562" lon="3.68069">
        <ele>247</ele>
        <time>2012-10-13T14:55:08Z</time>
      </trkpt>
      <trkpt lat="47.18565" lon="3.68074">
        <ele>247</ele>
        <time>2012-10-13T14:55:13Z</time>
      </trkpt>
      <trkpt lat="47.18573" lon="3.68088">
        <ele>247</ele>
        <time>2012-10-13T14:55:26Z</time>
      </trkpt>
      <trkpt lat="47.1858" lon="3.681">
        <ele>247</ele>
        <time>2012-10-13T14:55:38Z</time>
      </trkpt>
      <trkpt lat="47.18586" lon="3.6811">
        <ele>252</ele>
        <time>2012-10-13T14:55:51Z</time>
      </trkpt>
      <trkpt lat="47.18592" lon="3.68119">
        <ele>253</ele>
        <time>2012-10-13T14:56:02Z</time>
      </trkpt>
      <trkpt lat="47.186" lon="3.68129">
        <ele>253</ele>
        <time>2012-10-13T14:56:14Z</time>
      </trkpt>
      <trkpt lat="47.18606" lon="3.68141">
        <ele>253</ele>
        <time>2012-10-13T14:56:26Z</time>
      </trkpt>
      <trkpt lat="47.1861" lon="3.68148">
        <ele>253</ele>
        <time>2012-10-13T14:56:34Z</time>
      </trkpt>
      <trkpt lat="47.18616" lon="3.68165">
        <ele>253</ele>
        <time>2012-10-13T14:56:48Z</time>
      </trkpt>
      <trkpt lat="47.18619" lon="3.68174">
        <ele>251</ele>
        <time>2012-10-13T14:57:01Z</time>
      </trkpt>
      <trkpt lat="47.18623" lon="3.68186">
        <ele>252</ele>
        <time>2012-10-13T14:57:12Z</time>
      </trkpt>
      <trkpt lat="47.18625" lon="3.68193">
        <ele>252</ele>
        <time>2012-10-13T14:57:23Z</time>
      </trkpt>
      <trkpt lat="47.18625" lon="3.68199">
        <ele>252</ele>
        <time>2012-10-13T14:57:27Z</time>
      </trkpt>
      <trkpt lat="47.18627" lon="3.68209">
        <ele>252</ele>
        <time>2012-10-13T14:57:34Z</time>
      </trkpt>
      <trkpt lat="47.18628" lon="3.68217">
        <ele>252</ele>
        <time>2012-10-13T14:57:40Z</time>
      </trkpt>
      <trkpt lat="47.18629" lon="3.68223">
        <ele>252</ele>
        <time>2012-10-13T14:57:45Z</time>
      </trkpt>
      <trkpt lat="47.18633" lon="3.68239">
        <ele>252</ele>
        <time>2012-10-13T14:57:58Z</time>
      </trkpt>
      <trkpt lat="47.18635" lon="3.68246">
        <ele>252</ele>
        <time>2012-10-13T14:58:04Z</time>
      </trkpt>
      <trkpt lat="47.18636" lon="3.68259">
        <ele>251</ele>
        <time>2012-10-13T14:58:14Z</time>
      </trkpt>
      <trkpt lat="47.18638" lon="3.68279">
        <ele>250</ele>
        <time>2012-10-13T14:58:29Z</time>
      </trkpt>
      <trkpt lat="47.1864" lon="3.68291">
        <ele>249</ele>
        <time>2012-10-13T14:58:37Z</time>
      </trkpt>
      <trkpt lat="47.1864" lon="3.68301">
        <ele>249</ele>
        <time>2012-10-13T14:58:45Z</time>
      </trkpt>
      <trkpt lat="47.18641" lon="3.68312">
        <ele>249</ele>
        <time>2012-10-13T14:58:54Z</time>
      </trkpt>
      <trkpt lat="47.18642" lon="3.68328">
        <ele>248</ele>
        <time>2012-10-13T14:59:05Z</time>
      </trkpt>
      <trkpt lat="47.18644" lon="3.68344">
        <ele>246</ele>
        <time>2012-10-13T14:59:17Z</time>
      </trkpt>
      <trkpt lat="47.18645" lon="3.68358">
        <ele>246</ele>
        <time>2012-10-13T14:59:28Z</time>
      </trkpt>
      <trkpt lat="47.18648" lon="3.68375">
        <ele>246</ele>
        <time>2012-10-13T14:59:41Z</time>
      </trkpt>
      <trkpt lat="47.18649" lon="3.68381">
        <ele>246</ele>
        <time>2012-10-13T14:59:45Z</time>
      </trkpt>
      <trkpt lat="47.1865" lon="3.68385">
        <ele>245</ele>
        <time>2012-10-13T14:59:48Z</time>
      </trkpt>
      <trkpt lat="47.18651" lon="3.68388">
        <ele>245</ele>
        <time>2012-10-13T14:59:50Z</time>
      </trkpt>
      <trkpt lat="47.18653" lon="3.68395">
        <ele>245</ele>
        <time>2012-10-13T15:00:02Z</time>
      </trkpt>
      <trkpt lat="47.18655" lon="3.68405">
        <ele>244</ele>
        <time>2012-10-13T15:00:12Z</time>
      </trkpt>
      <trkpt lat="47.18657" lon="3.68412">
        <ele>244</ele>
        <time>2012-10-13T15:00:17Z</time>
      </trkpt>
      <trkpt lat="47.18652" lon="3.68419">
        <ele>243</ele>
        <time>2012-10-13T15:00:30Z</time>
      </trkpt>
      <trkpt lat="47.18651" lon="3.68423">
        <ele>243</ele>
        <time>2012-10-13T15:00:39Z</time>
      </trkpt>
      <trkpt lat="47.18652" lon="3.68422">
        <ele>243</ele>
        <time>2012-10-13T15:00:51Z</time>
      </trkpt>
      <trkpt lat="47.1865" lon="3.68422">
        <ele>243</ele>
        <time>2012-10-13T15:01:07Z</time>
      </trkpt>
      <trkpt lat="47.18651" lon="3.68421">
        <ele>243</ele>
        <time>2012-10-13T15:01:29Z</time>
      </trkpt>
      <trkpt lat="47.18653" lon="3.6842">
        <ele>243</ele>
        <time>2012-10-13T15:01:45Z</time>
      </trkpt>
      <trkpt lat="47.18654" lon="3.68421">
        <ele>243</ele>
        <time>2012-10-13T15:01:46Z</time>
      </trkpt>
      <trkpt lat="47.18657" lon="3.68424">
        <ele>243</ele>
        <time>2012-10-13T15:01:50Z</time>
      </trkpt>
      <trkpt lat="47.18659" lon="3.68429">
        <ele>243</ele>
        <time>2012-10-13T15:01:53Z</time>
      </trkpt>
      <trkpt lat="47.18663" lon="3.68438">
        <ele>243</ele>
        <time>2012-10-13T15:01:59Z</time>
      </trkpt>
      <trkpt lat="47.18664" lon="3.68441">
        <ele>243</ele>
        <time>2012-10-13T15:02:02Z</time>
      </trkpt>
      <trkpt lat="47.18666" lon="3.68449">
        <ele>243</ele>
        <time>2012-10-13T15:02:07Z</time>
      </trkpt>
      <trkpt lat="47.18668" lon="3.68455">
        <ele>247</ele>
        <time>2012-10-13T15:02:11Z</time>
      </trkpt>
      <trkpt lat="47.18672" lon="3.68469">
        <ele>247</ele>
        <time>2012-10-13T15:02:20Z</time>
      </trkpt>
      <trkpt lat="47.18675" lon="3.68475">
        <ele>246</ele>
        <time>2012-10-13T15:02:25Z</time>
      </trkpt>
      <trkpt lat="47.18675" lon="3.68479">
        <ele>245</ele>
        <time>2012-10-13T15:02:37Z</time>
      </trkpt>
      <trkpt lat="47.18674" lon="3.6848">
        <ele>245</ele>
        <time>2012-10-13T15:03:00Z</time>
      </trkpt>
      <trkpt lat="47.18675" lon="3.68483">
        <ele>244</ele>
        <time>2012-10-13T15:03:23Z</time>
      </trkpt>
      <trkpt lat="47.1868" lon="3.68492">
        <ele>244</ele>
        <time>2012-10-13T15:03:29Z</time>
      </trkpt>
      <trkpt lat="47.18681" lon="3.68496">
        <ele>244</ele>
        <time>2012-10-13T15:03:32Z</time>
      </trkpt>
      <trkpt lat="47.18687" lon="3.68514">
        <ele>242</ele>
        <time>2012-10-13T15:03:46Z</time>
      </trkpt>
      <trkpt lat="47.18688" lon="3.68515">
        <ele>243</ele>
        <time>2012-10-13T15:03:47Z</time>
      </trkpt>
      <trkpt lat="47.18689" lon="3.68523">
        <ele>243</ele>
        <time>2012-10-13T15:03:53Z</time>
      </trkpt>
      <trkpt lat="47.18689" lon="3.68527">
        <ele>243</ele>
        <time>2012-10-13T15:03:56Z</time>
      </trkpt>
      <trkpt lat="47.18692" lon="3.68533">
        <ele>243</ele>
        <time>2012-10-13T15:04:00Z</time>
      </trkpt>
      <trkpt lat="47.18695" lon="3.68546">
        <ele>243</ele>
        <time>2012-10-13T15:04:08Z</time>
      </trkpt>
      <trkpt lat="47.18696" lon="3.68551">
        <ele>243</ele>
        <time>2012-10-13T15:04:11Z</time>
      </trkpt>
      <trkpt lat="47.18697" lon="3.68556">
        <ele>243</ele>
        <time>2012-10-13T15:04:21Z</time>
      </trkpt>
      <trkpt lat="47.187" lon="3.68562">
        <ele>243</ele>
        <time>2012-10-13T15:04:25Z</time>
      </trkpt>
      <trkpt lat="47.18703" lon="3.68576">
        <ele>243</ele>
        <time>2012-10-13T15:04:34Z</time>
      </trkpt>
      <trkpt lat="47.18705" lon="3.68582">
        <ele>243</ele>
        <time>2012-10-13T15:04:38Z</time>
      </trkpt>
      <trkpt lat="47.18707" lon="3.68589">
        <ele>238</ele>
        <time>2012-10-13T15:04:43Z</time>
      </trkpt>
      <trkpt lat="47.18708" lon="3.68595">
        <ele>238</ele>
        <time>2012-10-13T15:04:47Z</time>
      </trkpt>
      <trkpt lat="47.18707" lon="3.68601">
        <ele>238</ele>
        <time>2012-10-13T15:04:51Z</time>
      </trkpt>
      <trkpt lat="47.18706" lon="3.68604">
        <ele>238</ele>
        <time>2012-10-13T15:04:53Z</time>
      </trkpt>
      <trkpt lat="47.18704" lon="3.68605">
        <ele>238</ele>
        <time>2012-10-13T15:05:06Z</time>
      </trkpt>
      <trkpt lat="47.18703" lon="3.68605">
        <ele>237</ele>
        <time>2012-10-13T15:05:31Z</time>
      </trkpt>
      <trkpt lat="47.18704" lon="3.68604">
        <ele>238</ele>
        <time>2012-10-13T15:05:42Z</time>
      </trkpt>
      <trkpt lat="47.18705" lon="3.68611">
        <ele>237</ele>
        <time>2012-10-13T15:05:47Z</time>
      </trkpt>
      <trkpt lat="47.18709" lon="3.68619">
        <ele>237</ele>
        <time>2012-10-13T15:05:53Z</time>
      </trkpt>
      <trkpt lat="47.1871" lon="3.68626">
        <ele>237</ele>
        <time>2012-10-13T15:05:57Z</time>
      </trkpt>
      <trkpt lat="47.18715" lon="3.68642">
        <ele>236</ele>
        <time>2012-10-13T15:06:12Z</time>
      </trkpt>
      <trkpt lat="47.18713" lon="3.68643">
        <ele>236</ele>
        <time>2012-10-13T15:06:23Z</time>
      </trkpt>
      <trkpt lat="47.18712" lon="3.68644">
        <ele>236</ele>
        <time>2012-10-13T15:06:32Z</time>
      </trkpt>
      <trkpt lat="47.1871" lon="3.68645">
        <ele>236</ele>
        <time>2012-10-13T15:06:42Z</time>
      </trkpt>
      <trkpt lat="47.18711" lon="3.68639">
        <ele>236</ele>
        <time>2012-10-13T15:06:51Z</time>
      </trkpt>
      <trkpt lat="47.18718" lon="3.68638">
        <ele>236</ele>
        <time>2012-10-13T15:06:59Z</time>
      </trkpt>
      <trkpt lat="47.18719" lon="3.68633">
        <ele>237</ele>
        <time>2012-10-13T15:07:02Z</time>
      </trkpt>
      <trkpt lat="47.18718" lon="3.68626">
        <ele>237</ele>
        <time>2012-10-13T15:07:07Z</time>
      </trkpt>
      <trkpt lat="47.18717" lon="3.68619">
        <ele>238</ele>
        <time>2012-10-13T15:07:11Z</time>
      </trkpt>
      <trkpt lat="47.18716" lon="3.6861">
        <ele>238</ele>
        <time>2012-10-13T15:07:17Z</time>
      </trkpt>
      <trkpt lat="47.18711" lon="3.686">
        <ele>238</ele>
        <time>2012-10-13T15:07:24Z</time>
      </trkpt>
      <trkpt lat="47.18708" lon="3.68591">
        <ele>238</ele>
        <time>2012-10-13T15:07:31Z</time>
      </trkpt>
      <trkpt lat="47.18699" lon="3.68572">
        <ele>243</ele>
        <time>2012-10-13T15:07:45Z</time>
      </trkpt>
      <trkpt lat="47.18698" lon="3.68567">
        <ele>243</ele>
        <time>2012-10-13T15:07:48Z</time>
      </trkpt>
      <trkpt lat="47.18693" lon="3.68559">
        <ele>243</ele>
        <time>2012-10-13T15:08:02Z</time>
      </trkpt>
      <trkpt lat="47.18693" lon="3.68559">
        <ele>243</ele>
        <time>2012-10-13T15:08:05Z</time>
      </trkpt>
      <trkpt lat="47.18686" lon="3.6854">
        <ele>243</ele>
        <time>2012-10-13T15:08:18Z</time>
      </trkpt>
      <trkpt lat="47.18682" lon="3.68529">
        <ele>242</ele>
        <time>2012-10-13T15:08:25Z</time>
      </trkpt>
      <trkpt lat="47.18681" lon="3.68524">
        <ele>242</ele>
        <time>2012-10-13T15:08:28Z</time>
      </trkpt>
      <trkpt lat="47.18679" lon="3.6852">
        <ele>242</ele>
        <time>2012-10-13T15:08:31Z</time>
      </trkpt>
      <trkpt lat="47.18671" lon="3.68499">
        <ele>240</ele>
        <time>2012-10-13T15:08:45Z</time>
      </trkpt>
      <trkpt lat="47.18668" lon="3.68481">
        <ele>244</ele>
        <time>2012-10-13T15:08:56Z</time>
      </trkpt>
      <trkpt lat="47.18668" lon="3.68469">
        <ele>246</ele>
        <time>2012-10-13T15:09:07Z</time>
      </trkpt>
      <trkpt lat="47.18669" lon="3.68461">
        <ele>247</ele>
        <time>2012-10-13T15:09:26Z</time>
      </trkpt>
      <trkpt lat="47.1867" lon="3.68446">
        <ele>248</ele>
        <time>2012-10-13T15:09:37Z</time>
      </trkpt>
      <trkpt lat="47.18667" lon="3.68444">
        <ele>243</ele>
        <time>2012-10-13T15:09:49Z</time>
      </trkpt>
      <trkpt lat="47.18665" lon="3.68443">
        <ele>243</ele>
        <time>2012-10-13T15:09:51Z</time>
      </trkpt>
      <trkpt lat="47.18662" lon="3.6843">
        <ele>243</ele>
        <time>2012-10-13T15:10:02Z</time>
      </trkpt>
      <trkpt lat="47.18658" lon="3.68416">
        <ele>244</ele>
        <time>2012-10-13T15:10:14Z</time>
      </trkpt>
      <trkpt lat="47.18655" lon="3.68403">
        <ele>245</ele>
        <time>2012-10-13T15:10:25Z</time>
      </trkpt>
      <trkpt lat="47.18651" lon="3.68386">
        <ele>245</ele>
        <time>2012-10-13T15:10:38Z</time>
      </trkpt>
      <trkpt lat="47.18651" lon="3.68383">
        <ele>245</ele>
        <time>2012-10-13T15:10:40Z</time>
      </trkpt>
      <trkpt lat="47.18649" lon="3.68379">
        <ele>246</ele>
        <time>2012-10-13T15:10:43Z</time>
      </trkpt>
      <trkpt lat="47.18649" lon="3.68375">
        <ele>246</ele>
        <time>2012-10-13T15:10:46Z</time>
      </trkpt>
      <trkpt lat="47.18648" lon="3.68373">
        <ele>246</ele>
        <time>2012-10-13T15:10:48Z</time>
      </trkpt>
      <trkpt lat="47.18647" lon="3.68356">
        <ele>246</ele>
        <time>2012-10-13T15:11:01Z</time>
      </trkpt>
      <trkpt lat="47.18645" lon="3.68343">
        <ele>246</ele>
        <time>2012-10-13T15:11:10Z</time>
      </trkpt>
      <trkpt lat="47.18643" lon="3.68327">
        <ele>248</ele>
        <time>2012-10-13T15:11:22Z</time>
      </trkpt>
      <trkpt lat="47.18641" lon="3.68311">
        <ele>249</ele>
        <time>2012-10-13T15:11:35Z</time>
      </trkpt>
      <trkpt lat="47.1864" lon="3.68303">
        <ele>249</ele>
        <time>2012-10-13T15:11:41Z</time>
      </trkpt>
      <trkpt lat="47.18639" lon="3.68289">
        <ele>249</ele>
        <time>2012-10-13T15:11:51Z</time>
      </trkpt>
      <trkpt lat="47.18638" lon="3.68275">
        <ele>250</ele>
        <time>2012-10-13T15:12:03Z</time>
      </trkpt>
      <trkpt lat="47.18637" lon="3.68268">
        <ele>250</ele>
        <time>2012-10-13T15:12:08Z</time>
      </trkpt>
      <trkpt lat="47.18636" lon="3.68259">
        <ele>251</ele>
        <time>2012-10-13T15:12:15Z</time>
      </trkpt>
      <trkpt lat="47.18635" lon="3.68251">
        <ele>251</ele>
        <time>2012-10-13T15:12:21Z</time>
      </trkpt>
      <trkpt lat="47.18634" lon="3.68243">
        <ele>252</ele>
        <time>2012-10-13T15:12:28Z</time>
      </trkpt>
      <trkpt lat="47.18631" lon="3.68225">
        <ele>252</ele>
        <time>2012-10-13T15:12:42Z</time>
      </trkpt>
      <trkpt lat="47.18627" lon="3.6821">
        <ele>252</ele>
        <time>2012-10-13T15:12:55Z</time>
      </trkpt>
      <trkpt lat="47.18626" lon="3.68207">
        <ele>252</ele>
        <time>2012-10-13T15:12:57Z</time>
      </trkpt>
      <trkpt lat="47.18621" lon="3.68193">
        <ele>252</ele>
        <time>2012-10-13T15:13:10Z</time>
      </trkpt>
      <trkpt lat="47.18617" lon="3.68182">
        <ele>251</ele>
        <time>2012-10-13T15:13:20Z</time>
      </trkpt>
      <trkpt lat="47.18615" lon="3.68176">
        <ele>251</ele>
        <time>2012-10-13T15:13:25Z</time>
      </trkpt>
      <trkpt lat="47.18609" lon="3.68162">
        <ele>252</ele>
        <time>2012-10-13T15:13:37Z</time>
      </trkpt>
      <trkpt lat="47.18607" lon="3.68155">
        <ele>252</ele>
        <time>2012-10-13T15:13:44Z</time>
      </trkpt>
      <trkpt lat="47.18604" lon="3.68145">
        <ele>252</ele>
        <time>2012-10-13T15:13:57Z</time>
      </trkpt>
      <trkpt lat="47.18598" lon="3.68136">
        <ele>253</ele>
        <time>2012-10-13T15:14:07Z</time>
      </trkpt>
      <trkpt lat="47.18594" lon="3.68128">
        <ele>253</ele>
        <time>2012-10-13T15:14:14Z</time>
      </trkpt>
      <trkpt lat="47.1859" lon="3.68119">
        <ele>253</ele>
        <time>2012-10-13T15:14:22Z</time>
      </trkpt>
      <trkpt lat="47.18584" lon="3.68112">
        <ele>252</ele>
        <time>2012-10-13T15:14:30Z</time>
      </trkpt>
      <trkpt lat="47.18576" lon="3.68098">
        <ele>247</ele>
        <time>2012-10-13T15:14:44Z</time>
      </trkpt>
      <trkpt lat="47.18569" lon="3.68086">
        <ele>247</ele>
        <time>2012-10-13T15:14:56Z</time>
      </trkpt>
      <trkpt lat="47.18567" lon="3.68083">
        <ele>247</ele>
        <time>2012-10-13T15:14:59Z</time>
      </trkpt>
      <trkpt lat="47.18565" lon="3.68081">
        <ele>247</ele>
        <time>2012-10-13T15:15:01Z</time>
      </trkpt>
      <trkpt lat="47.1856" lon="3.68072">
        <ele>247</ele>
        <time>2012-10-13T15:15:09Z</time>
      </trkpt>
      <trkpt lat="47.18558" lon="3.68071">
        <ele>247</ele>
        <time>2012-10-13T15:15:11Z</time>
      </trkpt>
      <trkpt lat="47.18557" lon="3.68068">
        <ele>247</ele>
        <time>2012-10-13T15:15:14Z</time>
      </trkpt>
      <trkpt lat="47.18552" lon="3.68061">
        <ele>247</ele>
        <time>2012-10-13T15:15:23Z</time>
      </trkpt>
      <trkpt lat="47.18545" lon="3.68051">
        <ele>246</ele>
        <time>2012-10-13T15:15:35Z</time>
      </trkpt>
      <trkpt lat="47.1854" lon="3.68039">
        <ele>246</ele>
        <time>2012-10-13T15:15:45Z</time>
      </trkpt>
      <trkpt lat="47.18534" lon="3.6803">
        <ele>246</ele>
        <time>2012-10-13T15:15:56Z</time>
      </trkpt>
      <trkpt lat="47.18527" lon="3.68019">
        <ele>245</ele>
        <time>2012-10-13T15:16:08Z</time>
      </trkpt>
      <trkpt lat="47.18521" lon="3.68007">
        <ele>243</ele>
        <time>2012-10-13T15:16:19Z</time>
      </trkpt>
      <trkpt lat="47.1852" lon="3.68006">
        <ele>243</ele>
        <time>2012-10-13T15:16:20Z</time>
      </trkpt>
      <trkpt lat="47.18519" lon="3.68004">
        <ele>243</ele>
        <time>2012-10-13T15:16:22Z</time>
      </trkpt>
      <trkpt lat="47.18515" lon="3.68">
        <ele>242</ele>
        <time>2012-10-13T15:16:27Z</time>
      </trkpt>
      <trkpt lat="47.18507" lon="3.6799">
        <ele>243</ele>
        <time>2012-10-13T15:16:40Z</time>
      </trkpt>
      <trkpt lat="47.18499" lon="3.67975">
        <ele>243</ele>
        <time>2012-10-13T15:16:54Z</time>
      </trkpt>
      <trkpt lat="47.18493" lon="3.67966">
        <ele>244</ele>
        <time>2012-10-13T15:17:04Z</time>
      </trkpt>
      <trkpt lat="47.18486" lon="3.67951">
        <ele>245</ele>
        <time>2012-10-13T15:17:17Z</time>
      </trkpt>
      <trkpt lat="47.18485" lon="3.67948">
        <ele>245</ele>
        <time>2012-10-13T15:17:19Z</time>
      </trkpt>
      <trkpt lat="47.18483" lon="3.67939">
        <ele>245</ele>
        <time>2012-10-13T15:17:26Z</time>
      </trkpt>
      <trkpt lat="47.18481" lon="3.67932">
        <ele>246</ele>
        <time>2012-10-13T15:17:32Z</time>
      </trkpt>
      <trkpt lat="47.18478" lon="3.67915">
        <ele>247</ele>
        <time>2012-10-13T15:17:45Z</time>
      </trkpt>
      <trkpt lat="47.18478" lon="3.67911">
        <ele>247</ele>
        <time>2012-10-13T15:17:48Z</time>
      </trkpt>
      <trkpt lat="47.18478" lon="3.67905">
        <ele>248</ele>
        <time>2012-10-13T15:17:52Z</time>
      </trkpt>
      <trkpt lat="47.18478" lon="3.67891">
        <ele>248</ele>
        <time>2012-10-13T15:18:03Z</time>
      </trkpt>
      <trkpt lat="47.18478" lon="3.67887">
        <ele>248</ele>
        <time>2012-10-13T15:18:06Z</time>
      </trkpt>
      <trkpt lat="47.18477" lon="3.67884">
        <ele>248</ele>
        <time>2012-10-13T15:18:08Z</time>
      </trkpt>
      <trkpt lat="47.18478" lon="3.67867">
        <ele>248</ele>
        <time>2012-10-13T15:18:20Z</time>
      </trkpt>
      <trkpt lat="47.18479" lon="3.67864">
        <ele>248</ele>
        <time>2012-10-13T15:18:22Z</time>
      </trkpt>
      <trkpt lat="47.18479" lon="3.67854">
        <ele>248</ele>
        <time>2012-10-13T15:18:30Z</time>
      </trkpt>
      <trkpt lat="47.1848" lon="3.67849">
        <ele>248</ele>
        <time>2012-10-13T15:18:34Z</time>
      </trkpt>
      <trkpt lat="47.1848" lon="3.67847">
        <ele>248</ele>
        <time>2012-10-13T15:18:36Z</time>
      </trkpt>
      <trkpt lat="47.18482" lon="3.67836">
        <ele>247</ele>
        <time>2012-10-13T15:18:48Z</time>
      </trkpt>
      <trkpt lat="47.18484" lon="3.67818">
        <ele>249</ele>
        <time>2012-10-13T15:19:02Z</time>
      </trkpt>
      <trkpt lat="47.18486" lon="3.67799">
        <ele>250</ele>
        <time>2012-10-13T15:19:17Z</time>
      </trkpt>
      <trkpt lat="47.18488" lon="3.6778">
        <ele>250</ele>
        <time>2012-10-13T15:19:31Z</time>
      </trkpt>
      <trkpt lat="47.18491" lon="3.67761">
        <ele>248</ele>
        <time>2012-10-13T15:19:46Z</time>
      </trkpt>
      <trkpt lat="47.18494" lon="3.67743">
        <ele>248</ele>
        <time>2012-10-13T15:20:01Z</time>
      </trkpt>
      <trkpt lat="47.18496" lon="3.67722">
        <ele>251</ele>
        <time>2012-10-13T15:20:17Z</time>
      </trkpt>
      <trkpt lat="47.18498" lon="3.677">
        <ele>251</ele>
        <time>2012-10-13T15:20:33Z</time>
      </trkpt>
      <trkpt lat="47.18499" lon="3.67679">
        <ele>249</ele>
        <time>2012-10-13T15:20:47Z</time>
      </trkpt>
      <trkpt lat="47.18499" lon="3.67656">
        <ele>249</ele>
        <time>2012-10-13T15:21:04Z</time>
      </trkpt>
      <trkpt lat="47.18505" lon="3.67631">
        <ele>253</ele>
        <time>2012-10-13T15:21:24Z</time>
      </trkpt>
      <trkpt lat="47.18511" lon="3.67605">
        <ele>253</ele>
        <time>2012-10-13T15:21:44Z</time>
      </trkpt>
      <trkpt lat="47.18515" lon="3.67578">
        <ele>251</ele>
        <time>2012-10-13T15:22:04Z</time>
      </trkpt>
      <trkpt lat="47.18528" lon="3.6756">
        <ele>254</ele>
        <time>2012-10-13T15:22:26Z</time>
      </trkpt>
      <trkpt lat="47.18528" lon="3.67528">
        <ele>254</ele>
        <time>2012-10-13T15:22:50Z</time>
      </trkpt>
      <trkpt lat="47.18526" lon="3.67496">
        <ele>251</ele>
        <time>2012-10-13T15:23:10Z</time>
      </trkpt>
      <trkpt lat="47.1852" lon="3.67478">
        <ele>250</ele>
        <time>2012-10-13T15:23:22Z</time>
      </trkpt>
      <trkpt lat="47.18514" lon="3.67455">
        <ele>250</ele>
        <time>2012-10-13T15:23:40Z</time>
      </trkpt>
      <trkpt lat="47.1851" lon="3.67439">
        <ele>249</ele>
        <time>2012-10-13T15:23:53Z</time>
      </trkpt>
      <trkpt lat="47.18501" lon="3.67424">
        <ele>246</ele>
        <time>2012-10-13T15:24:06Z</time>
      </trkpt>
      <trkpt lat="47.18494" lon="3.67406">
        <ele>245</ele>
        <time>2012-10-13T15:24:21Z</time>
      </trkpt>
      <trkpt lat="47.18487" lon="3.67394">
        <ele>246</ele>
        <time>2012-10-13T15:24:35Z</time>
      </trkpt>
      <trkpt lat="47.18479" lon="3.67379">
        <ele>246</ele>
        <time>2012-10-13T15:24:51Z</time>
      </trkpt>
      <trkpt lat="47.18472" lon="3.67367">
        <ele>246</ele>
        <time>2012-10-13T15:25:03Z</time>
      </trkpt>
      <trkpt lat="47.18472" lon="3.67366">
        <ele>246</ele>
        <time>2012-10-13T15:25:04Z</time>
      </trkpt>
      <trkpt lat="47.18465" lon="3.67347">
        <ele>246</ele>
        <time>2012-10-13T15:25:20Z</time>
      </trkpt>
      <trkpt lat="47.18461" lon="3.67338">
        <ele>246</ele>
        <time>2012-10-13T15:25:28Z</time>
      </trkpt>
      <trkpt lat="47.18459" lon="3.67331">
        <ele>248</ele>
        <time>2012-10-13T15:25:34Z</time>
      </trkpt>
      <trkpt lat="47.18454" lon="3.67322">
        <ele>249</ele>
        <time>2012-10-13T15:25:48Z</time>
      </trkpt>
      <trkpt lat="47.18447" lon="3.67312">
        <ele>249</ele>
        <time>2012-10-13T15:25:56Z</time>
      </trkpt>
      <trkpt lat="47.18439" lon="3.67302">
        <ele>249</ele>
        <time>2012-10-13T15:26:07Z</time>
      </trkpt>
      <trkpt lat="47.18434" lon="3.67292">
        <ele>250</ele>
        <time>2012-10-13T15:26:18Z</time>
      </trkpt>
      <trkpt lat="47.18426" lon="3.67279">
        <ele>251</ele>
        <time>2012-10-13T15:26:32Z</time>
      </trkpt>
      <trkpt lat="47.18419" lon="3.6727">
        <ele>251</ele>
        <time>2012-10-13T15:26:45Z</time>
      </trkpt>
      <trkpt lat="47.18408" lon="3.67257">
        <ele>251</ele>
        <time>2012-10-13T15:27:00Z</time>
      </trkpt>
      <trkpt lat="47.18398" lon="3.67246">
        <ele>254</ele>
        <time>2012-10-13T15:27:14Z</time>
      </trkpt>
      <trkpt lat="47.18387" lon="3.67239">
        <ele>255</ele>
        <time>2012-10-13T15:27:28Z</time>
      </trkpt>
      <trkpt lat="47.18385" lon="3.67238">
        <ele>255</ele>
        <time>2012-10-13T15:27:30Z</time>
      </trkpt>
      <trkpt lat="47.18375" lon="3.67231">
        <ele>255</ele>
        <time>2012-10-13T15:27:43Z</time>
      </trkpt>
      <trkpt lat="47.18362" lon="3.67224">
        <ele>255</ele>
        <time>2012-10-13T15:27:59Z</time>
      </trkpt>
      <trkpt lat="47.1836" lon="3.67222">
        <ele>255</ele>
        <time>2012-10-13T15:28:02Z</time>
      </trkpt>
      <trkpt lat="47.18349" lon="3.67212">
        <ele>256</ele>
        <time>2012-10-13T15:28:17Z</time>
      </trkpt>
      <trkpt lat="47.18341" lon="3.67208">
        <ele>256</ele>
        <time>2012-10-13T15:28:27Z</time>
      </trkpt>
      <trkpt lat="47.18332" lon="3.67202">
        <ele>254</ele>
        <time>2012-10-13T15:28:39Z</time>
      </trkpt>
      <trkpt lat="47.18318" lon="3.67195">
        <ele>254</ele>
        <time>2012-10-13T15:28:56Z</time>
      </trkpt>
      <trkpt lat="47.18295" lon="3.67182">
        <ele>254</ele>
        <time>2012-10-13T15:29:20Z</time>
      </trkpt>
      <trkpt lat="47.18276" lon="3.67179">
        <ele>254</ele>
        <time>2012-10-13T15:29:42Z</time>
      </trkpt>
      <trkpt lat="47.1826" lon="3.67196">
        <ele>254</ele>
        <time>2012-10-13T15:29:57Z</time>
      </trkpt>
      <trkpt lat="47.1826" lon="3.67196">
        <ele>254</ele>
        <time>2012-10-13T15:29:58Z</time>
      </trkpt>
      <trkpt lat="47.18253" lon="3.67197">
        <ele>253</ele>
        <time>2012-10-13T15:30:06Z</time>
      </trkpt>
      <trkpt lat="47.18244" lon="3.67195">
        <ele>254</ele>
        <time>2012-10-13T15:30:16Z</time>
      </trkpt>
      <trkpt lat="47.18225" lon="3.672">
        <ele>253</ele>
        <time>2012-10-13T15:30:37Z</time>
      </trkpt>
      <trkpt lat="47.18207" lon="3.67194">
        <ele>254</ele>
        <time>2012-10-13T15:30:58Z</time>
      </trkpt>
      <trkpt lat="47.18191" lon="3.67189">
        <ele>254</ele>
        <time>2012-10-13T15:31:18Z</time>
      </trkpt>
      <trkpt lat="47.18175" lon="3.6719">
        <ele>254</ele>
        <time>2012-10-13T15:31:35Z</time>
      </trkpt>
      <trkpt lat="47.18164" lon="3.67186">
        <ele>254</ele>
        <time>2012-10-13T15:31:54Z</time>
      </trkpt>
      <trkpt lat="47.18165" lon="3.67183">
        <ele>254</ele>
        <time>2012-10-13T15:32:15Z</time>
      </trkpt>
      <trkpt lat="47.18166" lon="3.67183">
        <ele>254</ele>
        <time>2012-10-13T15:32:21Z</time>
      </trkpt>
      <trkpt lat="47.18166" lon="3.67183">
        <ele>254</ele>
        <time>2012-10-13T15:32:22Z</time>
      </trkpt>
      <trkpt lat="47.18162" lon="3.67185">
        <ele>254</ele>
        <time>2012-10-13T15:32:29Z</time>
      </trkpt>
      <trkpt lat="47.18156" lon="3.67183">
        <ele>254</ele>
        <time>2012-10-13T15:32:37Z</time>
      </trkpt>
      <trkpt lat="47.18147" lon="3.6718">
        <ele>253</ele>
        <time>2012-10-13T15:32:48Z</time>
      </trkpt>
      <trkpt lat="47.18134" lon="3.67181">
        <ele>253</ele>
        <time>2012-10-13T15:33:00Z</time>
      </trkpt>
      <trkpt lat="47.18128" lon="3.67179">
        <ele>253</ele>
        <time>2012-10-13T15:33:07Z</time>
      </trkpt>
      <trkpt lat="47.18116" lon="3.67178">
        <ele>253</ele>
        <time>2012-10-13T15:33:21Z</time>
      </trkpt>
      <trkpt lat="47.18104" lon="3.67176">
        <ele>252</ele>
        <time>2012-10-13T15:33:34Z</time>
      </trkpt>
      <trkpt lat="47.18091" lon="3.67171">
        <ele>252</ele>
        <time>2012-10-13T15:33:47Z</time>
      </trkpt>
      <trkpt lat="47.1808" lon="3.67168">
        <ele>252</ele>
        <time>2012-10-13T15:34:00Z</time>
      </trkpt>
      <trkpt lat="47.18077" lon="3.67167">
        <ele>252</ele>
        <time>2012-10-13T15:34:03Z</time>
      </trkpt>
      <trkpt lat="47.18074" lon="3.67164">
        <ele>253</ele>
        <time>2012-10-13T15:34:08Z</time>
      </trkpt>
      <trkpt lat="47.18069" lon="3.67164">
        <ele>254</ele>
        <time>2012-10-13T15:34:13Z</time>
      </trkpt>
      <trkpt lat="47.18056" lon="3.67157">
        <ele>254</ele>
        <time>2012-10-13T15:34:27Z</time>
      </trkpt>
      <trkpt lat="47.18049" lon="3.67154">
        <ele>255</ele>
        <time>2012-10-13T15:34:38Z</time>
      </trkpt>
      <trkpt lat="47.18047" lon="3.67151">
        <ele>255</ele>
        <time>2012-10-13T15:34:40Z</time>
      </trkpt>
      <trkpt lat="47.18036" lon="3.67143">
        <ele>255</ele>
        <time>2012-10-13T15:34:54Z</time>
      </trkpt>
      <trkpt lat="47.18026" lon="3.67141">
        <ele>254</ele>
        <time>2012-10-13T15:35:06Z</time>
      </trkpt>
      <trkpt lat="47.18023" lon="3.6714">
        <ele>254</ele>
        <time>2012-10-13T15:35:09Z</time>
      </trkpt>
      <trkpt lat="47.18008" lon="3.67147">
        <ele>253</ele>
        <time>2012-10-13T15:35:23Z</time>
      </trkpt>
      <trkpt lat="47.17998" lon="3.67139">
        <ele>253</ele>
        <time>2012-10-13T15:35:36Z</time>
      </trkpt>
      <trkpt lat="47.17986" lon="3.67125">
        <ele>255</ele>
        <time>2012-10-13T15:35:51Z</time>
      </trkpt>
      <trkpt lat="47.17975" lon="3.67116">
        <ele>255</ele>
        <time>2012-10-13T15:36:05Z</time>
      </trkpt>
      <trkpt lat="47.17968" lon="3.67106">
        <ele>255</ele>
        <time>2012-10-13T15:36:15Z</time>
      </trkpt>
      <trkpt lat="47.17959" lon="3.67094">
        <ele>255</ele>
        <time>2012-10-13T15:36:29Z</time>
      </trkpt>
      <trkpt lat="47.1795" lon="3.67081">
        <ele>257</ele>
        <time>2012-10-13T15:36:43Z</time>
      </trkpt>
      <trkpt lat="47.17938" lon="3.67068">
        <ele>257</ele>
        <time>2012-10-13T15:36:58Z</time>
      </trkpt>
      <trkpt lat="47.17937" lon="3.67066">
        <ele>257</ele>
        <time>2012-10-13T15:37:00Z</time>
      </trkpt>
      <trkpt lat="47.17924" lon="3.67055">
        <ele>257</ele>
        <time>2012-10-13T15:37:15Z</time>
      </trkpt>
      <trkpt lat="47.17913" lon="3.67045">
        <ele>259</ele>
        <time>2012-10-13T15:37:28Z</time>
      </trkpt>
      <trkpt lat="47.17907" lon="3.67028">
        <ele>259</ele>
        <time>2012-10-13T15:37:41Z</time>
      </trkpt>
      <trkpt lat="47.17906" lon="3.67026">
        <ele>259</ele>
        <time>2012-10-13T15:37:42Z</time>
      </trkpt>
      <trkpt lat="47.17897" lon="3.67005">
        <ele>259</ele>
        <time>2012-10-13T15:37:56Z</time>
      </trkpt>
      <trkpt lat="47.17892" lon="3.66985">
        <ele>258</ele>
        <time>2012-10-13T15:38:09Z</time>
      </trkpt>
      <trkpt lat="47.17891" lon="3.66983">
        <ele>259</ele>
        <time>2012-10-13T15:38:11Z</time>
      </trkpt>
      <trkpt lat="47.17882" lon="3.6696">
        <ele>259</ele>
        <time>2012-10-13T15:38:29Z</time>
      </trkpt>
      <trkpt lat="47.17878" lon="3.66941">
        <ele>260</ele>
        <time>2012-10-13T15:38:43Z</time>
      </trkpt>
      <trkpt lat="47.17877" lon="3.66939">
        <ele>260</ele>
        <time>2012-10-13T15:38:45Z</time>
      </trkpt>
      <trkpt lat="47.17876" lon="3.66935">
        <ele>260</ele>
        <time>2012-10-13T15:38:48Z</time>
      </trkpt>
      <trkpt lat="47.17869" lon="3.66916">
        <ele>259</ele>
        <time>2012-10-13T15:39:02Z</time>
      </trkpt>
      <trkpt lat="47.17869" lon="3.66914">
        <ele>259</ele>
        <time>2012-10-13T15:39:03Z</time>
      </trkpt>
      <trkpt lat="47.17865" lon="3.66908">
        <ele>259</ele>
        <time>2012-10-13T15:39:09Z</time>
      </trkpt>
      <trkpt lat="47.17863" lon="3.66904">
        <ele>259</ele>
        <time>2012-10-13T15:39:12Z</time>
      </trkpt>
      <trkpt lat="47.17859" lon="3.66885">
        <ele>259</ele>
        <time>2012-10-13T15:39:27Z</time>
      </trkpt>
      <trkpt lat="47.17852" lon="3.66867">
        <ele>259</ele>
        <time>2012-10-13T15:39:42Z</time>
      </trkpt>
      <trkpt lat="47.17849" lon="3.6686">
        <ele>259</ele>
        <time>2012-10-13T15:39:48Z</time>
      </trkpt>
      <trkpt lat="47.17848" lon="3.66856">
        <ele>258</ele>
        <time>2012-10-13T15:39:51Z</time>
      </trkpt>
      <trkpt lat="47.17845" lon="3.66849">
        <ele>258</ele>
        <time>2012-10-13T15:39:56Z</time>
      </trkpt>
      <trkpt lat="47.17839" lon="3.66832">
        <ele>258</ele>
        <time>2012-10-13T15:40:09Z</time>
      </trkpt>
      <trkpt lat="47.17836" lon="3.66823">
        <ele>259</ele>
        <time>2012-10-13T15:40:16Z</time>
      </trkpt>
      <trkpt lat="47.17828" lon="3.66803">
        <ele>261</ele>
        <time>2012-10-13T15:40:32Z</time>
      </trkpt>
      <trkpt lat="47.17822" lon="3.66782">
        <ele>262</ele>
        <time>2012-10-13T15:40:47Z</time>
      </trkpt>
      <trkpt lat="47.17818" lon="3.6677">
        <ele>262</ele>
        <time>2012-10-13T15:40:56Z</time>
      </trkpt>
      <trkpt lat="47.17815" lon="3.66762">
        <ele>262</ele>
        <time>2012-10-13T15:41:03Z</time>
      </trkpt>
      <trkpt lat="47.17812" lon="3.66753">
        <ele>263</ele>
        <time>2012-10-13T15:41:10Z</time>
      </trkpt>
      <trkpt lat="47.17811" lon="3.66751">
        <ele>263</ele>
        <time>2012-10-13T15:41:12Z</time>
      </trkpt>
      <trkpt lat="47.17804" lon="3.66731">
        <ele>264</ele>
        <time>2012-10-13T15:41:28Z</time>
      </trkpt>
      <trkpt lat="47.17798" lon="3.66713">
        <ele>264</ele>
        <time>2012-10-13T15:41:42Z</time>
      </trkpt>
      <trkpt lat="47.17792" lon="3.66695">
        <ele>265</ele>
        <time>2012-10-13T15:41:57Z</time>
      </trkpt>
      <trkpt lat="47.17789" lon="3.66682">
        <ele>265</ele>
        <time>2012-10-13T15:42:07Z</time>
      </trkpt>
      <trkpt lat="47.17788" lon="3.66679">
        <ele>264</ele>
        <time>2012-10-13T15:42:10Z</time>
      </trkpt>
      <trkpt lat="47.17783" lon="3.66672">
        <ele>264</ele>
        <time>2012-10-13T15:42:16Z</time>
      </trkpt>
      <trkpt lat="47.1778" lon="3.66664">
        <ele>265</ele>
        <time>2012-10-13T15:42:22Z</time>
      </trkpt>
      <trkpt lat="47.17777" lon="3.66658">
        <ele>265</ele>
        <time>2012-10-13T15:42:28Z</time>
      </trkpt>
      <trkpt lat="47.17776" lon="3.66654">
        <ele>265</ele>
        <time>2012-10-13T15:42:30Z</time>
      </trkpt>
      <trkpt lat="47.17774" lon="3.66648">
        <ele>265</ele>
        <time>2012-10-13T15:42:35Z</time>
      </trkpt>
      <trkpt lat="47.17773" lon="3.66644">
        <ele>265</ele>
        <time>2012-10-13T15:42:39Z</time>
      </trkpt>
      <trkpt lat="47.17767" lon="3.6663">
        <ele>266</ele>
        <time>2012-10-13T15:42:49Z</time>
      </trkpt>
      <trkpt lat="47.17762" lon="3.66613">
        <ele>265</ele>
        <time>2012-10-13T15:43:03Z</time>
      </trkpt>
      <trkpt lat="47.1776" lon="3.66608">
        <ele>265</ele>
        <time>2012-10-13T15:43:07Z</time>
      </trkpt>
      <trkpt lat="47.17754" lon="3.66594">
        <ele>264</ele>
        <time>2012-10-13T15:43:19Z</time>
      </trkpt>
      <trkpt lat="47.1775" lon="3.66581">
        <ele>263</ele>
        <time>2012-10-13T15:43:29Z</time>
      </trkpt>
      <trkpt lat="47.17748" lon="3.66574">
        <ele>265</ele>
        <time>2012-10-13T15:43:35Z</time>
      </trkpt>
      <trkpt lat="47.17745" lon="3.66566">
        <ele>267</ele>
        <time>2012-10-13T15:43:41Z</time>
      </trkpt>
      <trkpt lat="47.17742" lon="3.66556">
        <ele>268</ele>
        <time>2012-10-13T15:43:46Z</time>
      </trkpt>
      <trkpt lat="47.17744" lon="3.66555">
        <ele>268</ele>
        <time>2012-10-13T15:43:48Z</time>
      </trkpt>
      <trkpt lat="47.17742" lon="3.66545">
        <ele>269</ele>
        <time>2012-10-13T15:43:54Z</time>
      </trkpt>
      <trkpt lat="47.17739" lon="3.66535">
        <ele>269</ele>
        <time>2012-10-13T15:43:59Z</time>
      </trkpt>
      <trkpt lat="47.17741" lon="3.66533">
        <ele>269</ele>
        <time>2012-10-13T15:44:02Z</time>
      </trkpt>
      <trkpt lat="47.17739" lon="3.6652">
        <ele>268</ele>
        <time>2012-10-13T15:44:11Z</time>
      </trkpt>
      <trkpt lat="47.17738" lon="3.66512">
        <ele>268</ele>
        <time>2012-10-13T15:44:18Z</time>
      </trkpt>
      <trkpt lat="47.1774" lon="3.66498">
        <ele>267</ele>
        <time>2012-10-13T15:44:27Z</time>
      </trkpt>
      <trkpt lat="47.17739" lon="3.66492">
        <ele>267</ele>
        <time>2012-10-13T15:44:31Z</time>
      </trkpt>
      <trkpt lat="47.17741" lon="3.66476">
        <ele>269</ele>
        <time>2012-10-13T15:44:41Z</time>
      </trkpt>
      <trkpt lat="47.17743" lon="3.6647">
        <ele>269</ele>
        <time>2012-10-13T15:44:46Z</time>
      </trkpt>
      <trkpt lat="47.17747" lon="3.66454">
        <ele>269</ele>
        <time>2012-10-13T15:44:57Z</time>
      </trkpt>
      <trkpt lat="47.17747" lon="3.66453">
        <ele>269</ele>
        <time>2012-10-13T15:44:58Z</time>
      </trkpt>
      <trkpt lat="47.1775" lon="3.66447">
        <ele>269</ele>
        <time>2012-10-13T15:45:04Z</time>
      </trkpt>
      <trkpt lat="47.17753" lon="3.66435">
        <ele>267</ele>
        <time>2012-10-13T15:45:13Z</time>
      </trkpt>
      <trkpt lat="47.17754" lon="3.66434">
        <ele>267</ele>
        <time>2012-10-13T15:45:15Z</time>
      </trkpt>
      <trkpt lat="47.17754" lon="3.66425">
        <ele>266</ele>
        <time>2012-10-13T15:45:22Z</time>
      </trkpt>
      <trkpt lat="47.17749" lon="3.66417">
        <ele>264</ele>
        <time>2012-10-13T15:45:32Z</time>
      </trkpt>
      <trkpt lat="47.17746" lon="3.6642">
        <ele>265</ele>
        <time>2012-10-13T15:45:37Z</time>
      </trkpt>
      <trkpt lat="47.17737" lon="3.66415">
        <ele>268</ele>
        <time>2012-10-13T15:45:46Z</time>
      </trkpt>
      <trkpt lat="47.17731" lon="3.66409">
        <ele>269</ele>
        <time>2012-10-13T15:45:56Z</time>
      </trkpt>
      <trkpt lat="47.17732" lon="3.66409">
        <ele>269</ele>
        <time>2012-10-13T15:46:09Z</time>
      </trkpt>
      <trkpt lat="47.17734" lon="3.66398">
        <ele>270</ele>
        <time>2012-10-13T15:46:15Z</time>
      </trkpt>
      <trkpt lat="47.17738" lon="3.6639">
        <ele>270</ele>
        <time>2012-10-13T15:46:22Z</time>
      </trkpt>
      <trkpt lat="47.17738" lon="3.66385">
        <ele>271</ele>
        <time>2012-10-13T15:46:26Z</time>
      </trkpt>
      <trkpt lat="47.17739" lon="3.66377">
        <ele>271</ele>
        <time>2012-10-13T15:46:34Z</time>
      </trkpt>
      <trkpt lat="47.1774" lon="3.66369">
        <ele>271</ele>
        <time>2012-10-13T15:46:39Z</time>
      </trkpt>
      <trkpt lat="47.17734" lon="3.66352">
        <ele>271</ele>
        <time>2012-10-13T15:46:51Z</time>
      </trkpt>
      <trkpt lat="47.17733" lon="3.66344">
        <ele>270</ele>
        <time>2012-10-13T15:47:00Z</time>
      </trkpt>
      <trkpt lat="47.17732" lon="3.66336">
        <ele>270</ele>
        <time>2012-10-13T15:47:08Z</time>
      </trkpt>
      <trkpt lat="47.17732" lon="3.66332">
        <ele>270</ele>
        <time>2012-10-13T15:47:11Z</time>
      </trkpt>
      <trkpt lat="47.17733" lon="3.66325">
        <ele>270</ele>
        <time>2012-10-13T15:47:16Z</time>
      </trkpt>
      <trkpt lat="47.17732" lon="3.66309">
        <ele>271</ele>
        <time>2012-10-13T15:47:26Z</time>
      </trkpt>
      <trkpt lat="47.17732" lon="3.66303">
        <ele>271</ele>
        <time>2012-10-13T15:47:31Z</time>
      </trkpt>
      <trkpt lat="47.17732" lon="3.66295">
        <ele>271</ele>
        <time>2012-10-13T15:47:36Z</time>
      </trkpt>
      <trkpt lat="47.17729" lon="3.66281">
        <ele>271</ele>
        <time>2012-10-13T15:47:46Z</time>
      </trkpt>
      <trkpt lat="47.17728" lon="3.66272">
        <ele>271</ele>
        <time>2012-10-13T15:47:52Z</time>
      </trkpt>
      <trkpt lat="47.1773" lon="3.66258">
        <ele>270</ele>
        <time>2012-10-13T15:48:00Z</time>
      </trkpt>
      <trkpt lat="47.17731" lon="3.66255">
        <ele>270</ele>
        <time>2012-10-13T15:48:03Z</time>
      </trkpt>
      <trkpt lat="47.17731" lon="3.66246">
        <ele>268</ele>
        <time>2012-10-13T15:48:09Z</time>
      </trkpt>
      <trkpt lat="47.1773" lon="3.66241">
        <ele>269</ele>
        <time>2012-10-13T15:48:15Z</time>
      </trkpt>
      <trkpt lat="47.17729" lon="3.66236">
        <ele>269</ele>
        <time>2012-10-13T15:48:20Z</time>
      </trkpt>
      <trkpt lat="47.17725" lon="3.66228">
        <ele>269</ele>
        <time>2012-10-13T15:48:26Z</time>
      </trkpt>
      <trkpt lat="47.17722" lon="3.66219">
        <ele>269</ele>
        <time>2012-10-13T15:48:33Z</time>
      </trkpt>
      <trkpt lat="47.17719" lon="3.66212">
        <ele>270</ele>
        <time>2012-10-13T15:48:39Z</time>
      </trkpt>
      <trkpt lat="47.17716" lon="3.66198">
        <ele>270</ele>
        <time>2012-10-13T15:48:49Z</time>
      </trkpt>
      <trkpt lat="47.17714" lon="3.66197">
        <ele>270</ele>
        <time>2012-10-13T15:48:59Z</time>
      </trkpt>
      <trkpt lat="47.17709" lon="3.66191">
        <ele>270</ele>
        <time>2012-10-13T15:49:06Z</time>
      </trkpt>
      <trkpt lat="47.17702" lon="3.66184">
        <ele>270</ele>
        <time>2012-10-13T15:49:12Z</time>
      </trkpt>
      <trkpt lat="47.17694" lon="3.66174">
        <ele>270</ele>
        <time>2012-10-13T15:49:19Z</time>
      </trkpt>
      <trkpt lat="47.17686" lon="3.66172">
        <ele>271</ele>
        <time>2012-10-13T15:49:25Z</time>
      </trkpt>
      <trkpt lat="47.17683" lon="3.66173">
        <ele>271</ele>
        <time>2012-10-13T15:49:36Z</time>
      </trkpt>
      <trkpt lat="47.17683" lon="3.66173">
        <ele>271</ele>
        <time>2012-10-13T15:49:37Z</time>
      </trkpt>
    </trkseg>
  </trk>
</gpx>